UAE121 OMDB-LTFM
Flight info
| Callsign | UAE121 |
|---|---|
| Flight time | 6h 23m |
| Altitude | 40000 |
| Route | ANVIX R401 GIDIS G783 RIGIL M628 PEKEM DCT MEDPO DCT ITRUX Y511 PMA Z712 WEJ L677 GESON Q777 RASDA DCT USEBE M855 TOMBI UA16 LEMDA UM855 SISPI |
| Aircraft | A359/H-SDE2E3GHIJ3J4J5LM1ORWXY/LB1D1 |
Departure
| Time | 2026-04-23 20:06 |
|---|---|
| Airport | Dubai International Airport (OMDB) |
Arrival
| Time | 2026-04-24 02:30 |
|---|---|
| Airport | İstanbul Airport (LTFM) |
| Time | Latitude | Longitude | Altitude | Speed | Heading |
|---|---|---|---|---|---|
| 2026-04-23 19:22 | 25.25093 | 55.35921 | 28 ft | 0 kts | 211° |
| 2026-04-23 19:44 | 25.25092 | 55.35921 | 27 ft | 0 kts | 211° |
| 2026-04-23 19:49 | 25.25093 | 55.35921 | 27 ft | 1 kts | 211° |
| 2026-04-23 19:49 | 25.25105 | 55.35929 | 26 ft | 3 kts | 211° |
| 2026-04-23 19:49 | 25.25122 | 55.35940 | 26 ft | 3 kts | 213° |
| 2026-04-23 19:49 | 25.25138 | 55.35954 | 26 ft | 3 kts | 226° |
| 2026-04-23 19:50 | 25.25150 | 55.35971 | 24 ft | 3 kts | 244° |
| 2026-04-23 19:50 | 25.25157 | 55.35991 | 26 ft | 3 kts | 266° |
| 2026-04-23 19:50 | 25.25155 | 55.36012 | 26 ft | 3 kts | 292° |
| 2026-04-23 19:50 | 25.25150 | 55.36024 | 24 ft | 2 kts | 302° |
| 2026-04-23 19:51 | 25.25140 | 55.36041 | 25 ft | 3 kts | 302° |
| 2026-04-23 19:51 | 25.25136 | 55.36049 | 26 ft | 0 kts | 302° |
| 2026-04-23 19:54 | 25.25138 | 55.36045 | 28 ft | 2 kts | 302° |
| 2026-04-23 19:55 | 25.25153 | 55.36018 | 28 ft | 7 kts | 302° |
| 2026-04-23 19:55 | 25.25186 | 55.35959 | 28 ft | 11 kts | 302° |
| 2026-04-23 19:55 | 25.25235 | 55.35872 | 27 ft | 15 kts | 302° |
| 2026-04-23 19:55 | 25.25297 | 55.35761 | 27 ft | 19 kts | 302° |
| 2026-04-23 19:56 | 25.25372 | 55.35628 | 27 ft | 22 kts | 302° |
| 2026-04-23 19:56 | 25.25453 | 55.35483 | 27 ft | 23 kts | 302° |
| 2026-04-23 19:56 | 25.25541 | 55.35327 | 27 ft | 25 kts | 301° |
| 2026-04-23 19:56 | 25.25606 | 55.35212 | 27 ft | 0 kts | 302° |
| 2026-04-23 19:59 | 25.25606 | 55.35211 | 27 ft | 0 kts | 302° |
| 2026-04-23 19:59 | 25.25613 | 55.35200 | 27 ft | 4 kts | 302° |
| 2026-04-23 19:59 | 25.25624 | 55.35180 | 27 ft | 1 kts | 302° |
| 2026-04-23 20:00 | 25.25632 | 55.35167 | 27 ft | 4 kts | 305° |
| 2026-04-23 20:00 | 25.25662 | 55.35150 | 27 ft | 5 kts | 357° |
| 2026-04-23 20:00 | 25.25689 | 55.35157 | 27 ft | 7 kts | 19° |
| 2026-04-23 20:00 | 25.25768 | 55.35208 | 27 ft | 13 kts | 31° |
| 2026-04-23 20:01 | 25.25824 | 55.35245 | 28 ft | 15 kts | 31° |
| 2026-04-23 20:01 | 25.25927 | 55.35314 | 28 ft | 19 kts | 31° |
| 2026-04-23 20:01 | 25.26005 | 55.35428 | 28 ft | 19 kts | 76° |
| 2026-04-23 20:01 | 25.25980 | 55.35573 | 29 ft | 20 kts | 123° |
| 2026-04-23 20:02 | 25.25898 | 55.35716 | 29 ft | 24 kts | 122° |
| 2026-04-23 20:02 | 25.25805 | 55.35883 | 29 ft | 27 kts | 122° |
| 2026-04-23 20:02 | 25.25705 | 55.36060 | 30 ft | 23 kts | 122° |
| 2026-04-23 20:02 | 25.25616 | 55.36220 | 30 ft | 26 kts | 122° |
| 2026-04-23 20:03 | 25.25515 | 55.36399 | 30 ft | 29 kts | 122° |
| 2026-04-23 20:03 | 25.25405 | 55.36594 | 29 ft | 31 kts | 121° |
| 2026-04-23 20:03 | 25.25287 | 55.36805 | 30 ft | 33 kts | 122° |
| 2026-04-23 20:03 | 25.25166 | 55.37021 | 31 ft | 33 kts | 122° |
| 2026-04-23 20:04 | 25.25043 | 55.37239 | 31 ft | 34 kts | 122° |
| 2026-04-23 20:04 | 25.24914 | 55.37468 | 32 ft | 36 kts | 122° |
| 2026-04-23 20:04 | 25.24789 | 55.37691 | 31 ft | 33 kts | 122° |
| 2026-04-23 20:04 | 25.24684 | 55.37877 | 30 ft | 17 kts | 121° |
| 2026-04-23 20:05 | 25.24695 | 55.37964 | 31 ft | 10 kts | 45° |
| 2026-04-23 20:05 | 25.24749 | 55.38006 | 35 ft | 10 kts | 33° |
| 2026-04-23 20:05 | 25.24799 | 55.38020 | 36 ft | 6 kts | 338° |
| 2026-04-23 20:05 | 25.24829 | 55.37983 | 36 ft | 8 kts | 304° |
| 2026-04-23 20:06 | 25.24939 | 55.37790 | 36 ft | 63 kts | 301° |
| 2026-04-23 20:06 | 25.25282 | 55.37171 | 38 ft | 124 kts | 301° |
| 2026-04-23 20:06 | 25.25827 | 55.36189 | 117 ft | 167 kts | 301° |
| 2026-04-23 20:06 | 25.26426 | 55.35095 | 782 ft | 166 kts | 303° |
| 2026-04-23 20:07 | 25.27049 | 55.33979 | 1320 ft | 175 kts | 305° |
| 2026-04-23 20:07 | 25.27702 | 55.32811 | 1821 ft | 186 kts | 305° |
| 2026-04-23 20:07 | 25.28409 | 55.31549 | 2020 ft | 201 kts | 304° |
| 2026-04-23 20:07 | 25.29099 | 55.30134 | 2118 ft | 220 kts | 292° |
| 2026-04-23 20:08 | 25.29148 | 55.28400 | 2272 ft | 237 kts | 252° |
| 2026-04-23 20:08 | 25.28493 | 55.26709 | 2713 ft | 240 kts | 243° |
| 2026-04-23 20:08 | 25.27747 | 55.25050 | 3241 ft | 242 kts | 243° |
| 2026-04-23 20:08 | 25.27006 | 55.23379 | 3737 ft | 242 kts | 244° |
| 2026-04-23 20:09 | 25.26287 | 55.21730 | 4283 ft | 241 kts | 245° |
| 2026-04-23 20:09 | 25.25553 | 55.20032 | 4791 ft | 242 kts | 245° |
| 2026-04-23 20:09 | 25.24779 | 55.18383 | 5326 ft | 242 kts | 237° |
| 2026-04-23 20:09 | 25.23554 | 55.17117 | 5795 ft | 245 kts | 209° |
| 2026-04-23 20:10 | 25.21874 | 55.16685 | 6183 ft | 255 kts | 181° |
| 2026-04-23 20:10 | 25.20094 | 55.16872 | 6600 ft | 260 kts | 168° |
| 2026-04-23 20:10 | 25.18459 | 55.17753 | 6943 ft | 267 kts | 142° |
| 2026-04-23 20:10 | 25.17278 | 55.19407 | 7130 ft | 284 kts | 121° |
| 2026-04-23 20:11 | 25.16356 | 55.21343 | 7458 ft | 292 kts | 118° |
| 2026-04-23 20:11 | 25.15436 | 55.23348 | 7925 ft | 294 kts | 119° |
| 2026-04-23 20:11 | 25.14495 | 55.25367 | 8384 ft | 296 kts | 120° |
| 2026-04-23 20:11 | 25.13530 | 55.27408 | 8888 ft | 297 kts | 120° |
| 2026-04-23 20:12 | 25.12569 | 55.29437 | 9394 ft | 299 kts | 120° |
| 2026-04-23 20:12 | 25.11595 | 55.31468 | 9869 ft | 300 kts | 121° |
| 2026-04-23 20:12 | 25.10612 | 55.33510 | 10302 ft | 303 kts | 121° |
| 2026-04-23 20:12 | 25.09691 | 55.35613 | 10707 ft | 307 kts | 117° |
| 2026-04-23 20:13 | 25.08822 | 55.37775 | 11120 ft | 310 kts | 117° |
| 2026-04-23 20:13 | 25.07957 | 55.39928 | 11552 ft | 312 kts | 117° |
| 2026-04-23 20:13 | 25.07057 | 55.42148 | 11993 ft | 314 kts | 117° |
| 2026-04-23 20:13 | 25.06195 | 55.44365 | 12237 ft | 325 kts | 116° |
| 2026-04-23 20:14 | 25.05307 | 55.46703 | 12409 ft | 337 kts | 115° |
| 2026-04-23 20:14 | 25.04384 | 55.49124 | 12581 ft | 348 kts | 116° |
| 2026-04-23 20:14 | 25.03429 | 55.51617 | 12738 ft | 358 kts | 115° |
| 2026-04-23 20:14 | 25.02445 | 55.54171 | 12912 ft | 367 kts | 116° |
| 2026-04-23 20:15 | 25.01276 | 55.56705 | 13076 ft | 374 kts | 122° |
| 2026-04-23 20:15 | 24.99949 | 55.59192 | 13268 ft | 380 kts | 123° |
| 2026-04-23 20:15 | 24.98582 | 55.61710 | 13543 ft | 384 kts | 123° |
| 2026-04-23 20:15 | 24.97206 | 55.64248 | 13837 ft | 387 kts | 123° |
| 2026-04-23 20:16 | 24.95819 | 55.66807 | 14112 ft | 390 kts | 123° |
| 2026-04-23 20:16 | 24.94413 | 55.69375 | 14379 ft | 393 kts | 125° |
| 2026-04-23 20:16 | 24.92858 | 55.71859 | 14670 ft | 394 kts | 128° |
| 2026-04-23 20:16 | 24.91236 | 55.74309 | 14943 ft | 397 kts | 129° |
| 2026-04-23 20:17 | 24.89603 | 55.76765 | 15202 ft | 399 kts | 129° |
| 2026-04-23 20:17 | 24.87953 | 55.79246 | 15509 ft | 402 kts | 129° |
| 2026-04-23 20:17 | 24.86300 | 55.81736 | 15791 ft | 405 kts | 129° |
| 2026-04-23 20:17 | 24.84633 | 55.84245 | 16102 ft | 406 kts | 128° |
| 2026-04-23 20:18 | 24.82961 | 55.86760 | 16418 ft | 409 kts | 128° |
| 2026-04-23 20:18 | 24.81255 | 55.89272 | 16695 ft | 411 kts | 129° |
| 2026-04-23 20:18 | 24.79306 | 55.91561 | 16958 ft | 409 kts | 144° |
| 2026-04-23 20:18 | 24.76853 | 55.93097 | 17166 ft | 406 kts | 163° |
| 2026-04-23 20:19 | 24.74109 | 55.93708 | 17442 ft | 402 kts | 179° |
| 2026-04-23 20:19 | 24.71320 | 55.93842 | 17790 ft | 401 kts | 183° |
| 2026-04-23 20:19 | 24.68525 | 55.93789 | 18081 ft | 402 kts | 186° |
| 2026-04-23 20:19 | 24.65722 | 55.93657 | 18330 ft | 404 kts | 186° |
| 2026-04-23 20:20 | 24.62932 | 55.93365 | 18607 ft | 403 kts | 194° |
| 2026-04-23 20:20 | 24.60245 | 55.92536 | 18823 ft | 400 kts | 205° |
| 2026-04-23 20:20 | 24.57819 | 55.91076 | 19091 ft | 397 kts | 218° |
| 2026-04-23 20:20 | 24.55613 | 55.89259 | 19377 ft | 396 kts | 221° |
| 2026-04-23 20:21 | 24.53504 | 55.87305 | 19658 ft | 397 kts | 224° |
| 2026-04-23 20:21 | 24.51440 | 55.85285 | 19912 ft | 398 kts | 224° |
| 2026-04-23 20:21 | 24.49388 | 55.83243 | 20184 ft | 399 kts | 224° |
| 2026-04-23 20:21 | 24.47325 | 55.81197 | 20475 ft | 400 kts | 224° |
| 2026-04-23 20:22 | 24.45245 | 55.79155 | 20739 ft | 402 kts | 224° |
| 2026-04-23 20:22 | 24.43148 | 55.77116 | 20983 ft | 403 kts | 224° |
| 2026-04-23 20:22 | 24.41046 | 55.75087 | 21238 ft | 405 kts | 224° |
| 2026-04-23 20:22 | 24.38919 | 55.73043 | 21505 ft | 406 kts | 223° |
| 2026-04-23 20:23 | 24.36793 | 55.71005 | 21762 ft | 407 kts | 223° |
| 2026-04-23 20:23 | 24.34653 | 55.68960 | 22002 ft | 409 kts | 223° |
| 2026-04-23 20:23 | 24.32510 | 55.66909 | 22241 ft | 410 kts | 223° |
| 2026-04-23 20:23 | 24.30357 | 55.64844 | 22496 ft | 411 kts | 223° |
| 2026-04-23 20:24 | 24.28174 | 55.62808 | 22720 ft | 413 kts | 220° |
| 2026-04-23 20:24 | 24.25795 | 55.61100 | 22926 ft | 418 kts | 210° |
| 2026-04-23 20:24 | 24.23104 | 55.59841 | 23157 ft | 422 kts | 202° |
| 2026-04-23 20:24 | 24.20308 | 55.58843 | 23390 ft | 424 kts | 199° |
| 2026-04-23 20:25 | 24.17463 | 55.57955 | 23587 ft | 426 kts | 198° |
| 2026-04-23 20:25 | 24.14595 | 55.57119 | 23762 ft | 427 kts | 198° |
| 2026-04-23 20:25 | 24.11712 | 55.56296 | 23935 ft | 429 kts | 198° |
| 2026-04-23 20:25 | 24.08822 | 55.55466 | 24105 ft | 430 kts | 198° |
| 2026-04-23 20:26 | 24.05923 | 55.54624 | 24274 ft | 431 kts | 198° |
| 2026-04-23 20:26 | 24.03024 | 55.53771 | 24446 ft | 433 kts | 198° |
| 2026-04-23 20:26 | 24.00111 | 55.52907 | 24616 ft | 434 kts | 198° |
| 2026-04-23 20:26 | 23.97193 | 55.52044 | 24779 ft | 436 kts | 198° |
| 2026-04-23 20:27 | 23.94262 | 55.51172 | 24914 ft | 438 kts | 198° |
| 2026-04-23 20:27 | 23.91320 | 55.50296 | 25088 ft | 439 kts | 199° |
| 2026-04-23 20:27 | 23.88371 | 55.49418 | 25254 ft | 440 kts | 199° |
| 2026-04-23 20:27 | 23.85411 | 55.48538 | 25431 ft | 441 kts | 199° |
| 2026-04-23 20:28 | 23.82443 | 55.47660 | 25591 ft | 442 kts | 199° |
| 2026-04-23 20:28 | 23.79469 | 55.46778 | 25770 ft | 444 kts | 199° |
| 2026-04-23 20:28 | 23.76487 | 55.45891 | 25929 ft | 445 kts | 199° |
| 2026-04-23 20:28 | 23.73498 | 55.45002 | 26107 ft | 446 kts | 199° |
| 2026-04-23 20:29 | 23.70494 | 55.44109 | 26252 ft | 448 kts | 199° |
| 2026-04-23 20:29 | 23.67485 | 55.43216 | 26422 ft | 449 kts | 199° |
| 2026-04-23 20:29 | 23.64463 | 55.42320 | 26591 ft | 451 kts | 199° |
| 2026-04-23 20:29 | 23.61435 | 55.41422 | 26771 ft | 452 kts | 199° |
| 2026-04-23 20:30 | 23.58392 | 55.40521 | 26937 ft | 453 kts | 199° |
| 2026-04-23 20:30 | 23.52281 | 55.38714 | 27290 ft | 456 kts | 199° |
| 2026-04-23 20:30 | 23.49212 | 55.37810 | 27496 ft | 458 kts | 199° |
| 2026-04-23 20:31 | 23.46132 | 55.36902 | 27646 ft | 459 kts | 199° |
| 2026-04-23 20:31 | 23.43044 | 55.35988 | 27822 ft | 461 kts | 199° |
| 2026-04-23 20:31 | 23.39945 | 55.35070 | 27950 ft | 463 kts | 199° |
| 2026-04-23 20:31 | 23.36836 | 55.34150 | 28127 ft | 464 kts | 199° |
| 2026-04-23 20:32 | 23.33706 | 55.33225 | 28306 ft | 466 kts | 199° |
| 2026-04-23 20:32 | 23.30577 | 55.32301 | 28497 ft | 467 kts | 199° |
| 2026-04-23 20:32 | 23.27434 | 55.31374 | 28663 ft | 469 kts | 199° |
| 2026-04-23 20:32 | 23.24282 | 55.30445 | 28846 ft | 470 kts | 199° |
| 2026-04-23 20:33 | 23.21134 | 55.29518 | 29018 ft | 471 kts | 199° |
| 2026-04-23 20:33 | 23.17951 | 55.28580 | 29191 ft | 473 kts | 199° |
| 2026-04-23 20:33 | 23.14780 | 55.27630 | 29376 ft | 473 kts | 201° |
| 2026-04-23 20:33 | 23.11703 | 55.26390 | 29496 ft | 471 kts | 208° |
| 2026-04-23 20:34 | 23.08831 | 55.24697 | 29698 ft | 467 kts | 217° |
| 2026-04-23 20:34 | 23.06265 | 55.22580 | 29905 ft | 463 kts | 226° |
| 2026-04-23 20:34 | 23.04050 | 55.20061 | 30061 ft | 459 kts | 235° |
| 2026-04-23 20:34 | 23.02256 | 55.17223 | 30240 ft | 455 kts | 244° |
| 2026-04-23 20:35 | 23.00904 | 55.14128 | 30425 ft | 453 kts | 252° |
| 2026-04-23 20:35 | 23.00018 | 55.10863 | 30597 ft | 451 kts | 261° |
| 2026-04-23 20:35 | 22.99499 | 55.07512 | 30779 ft | 451 kts | 262° |
| 2026-04-23 20:35 | 22.98888 | 55.04168 | 30972 ft | 452 kts | 261° |
| 2026-04-23 20:36 | 22.98276 | 55.00824 | 31177 ft | 453 kts | 261° |
| 2026-04-23 20:36 | 22.97656 | 54.97479 | 31418 ft | 452 kts | 261° |
| 2026-04-23 20:36 | 22.97020 | 54.94131 | 31617 ft | 453 kts | 260° |
| 2026-04-23 20:36 | 22.96380 | 54.90829 | 31786 ft | 454 kts | 260° |
| 2026-04-23 20:37 | 22.95711 | 54.87430 | 31968 ft | 455 kts | 260° |
| 2026-04-23 20:37 | 22.95047 | 54.84080 | 32135 ft | 455 kts | 260° |
| 2026-04-23 20:37 | 22.94377 | 54.80718 | 32312 ft | 456 kts | 260° |
| 2026-04-23 20:37 | 22.93706 | 54.77355 | 32473 ft | 457 kts | 260° |
| 2026-04-23 20:38 | 22.93034 | 54.73985 | 32645 ft | 457 kts | 260° |
| 2026-04-23 20:38 | 22.92359 | 54.70608 | 32819 ft | 458 kts | 260° |
| 2026-04-23 20:38 | 22.91693 | 54.67274 | 32977 ft | 459 kts | 260° |
| 2026-04-23 20:38 | 22.91009 | 54.63850 | 33150 ft | 459 kts | 260° |
| 2026-04-23 20:39 | 22.90334 | 54.60476 | 33401 ft | 457 kts | 260° |
| 2026-04-23 20:39 | 22.89660 | 54.57114 | 33666 ft | 456 kts | 260° |
| 2026-04-23 20:39 | 22.88995 | 54.53801 | 33917 ft | 454 kts | 260° |
| 2026-04-23 20:39 | 22.88324 | 54.50459 | 34154 ft | 453 kts | 260° |
| 2026-04-23 20:40 | 22.87654 | 54.47127 | 34390 ft | 451 kts | 260° |
| 2026-04-23 20:40 | 22.86986 | 54.43809 | 34621 ft | 450 kts | 260° |
| 2026-04-23 20:40 | 22.86318 | 54.40496 | 34833 ft | 449 kts | 261° |
| 2026-04-23 20:40 | 22.85643 | 54.37146 | 35062 ft | 448 kts | 260° |
| 2026-04-23 20:41 | 22.84978 | 54.33851 | 35291 ft | 447 kts | 260° |
| 2026-04-23 20:41 | 22.84321 | 54.30601 | 35514 ft | 446 kts | 260° |
| 2026-04-23 20:41 | 22.83657 | 54.27318 | 35734 ft | 446 kts | 260° |
| 2026-04-23 20:41 | 22.82994 | 54.24043 | 35952 ft | 445 kts | 260° |
| 2026-04-23 20:42 | 22.82331 | 54.20772 | 36196 ft | 443 kts | 260° |
| 2026-04-23 20:42 | 22.81669 | 54.17512 | 36425 ft | 443 kts | 260° |
| 2026-04-23 20:42 | 22.81007 | 54.14253 | 36621 ft | 442 kts | 260° |
| 2026-04-23 20:42 | 22.80345 | 54.11002 | 36850 ft | 441 kts | 260° |
| 2026-04-23 20:43 | 22.79686 | 54.07763 | 37068 ft | 441 kts | 260° |
| 2026-04-23 20:43 | 22.79024 | 54.04521 | 37279 ft | 440 kts | 260° |
| 2026-04-23 20:43 | 22.78365 | 54.01292 | 37489 ft | 439 kts | 260° |
| 2026-04-23 20:43 | 22.77707 | 53.98068 | 37680 ft | 438 kts | 260° |
| 2026-04-23 20:44 | 22.77068 | 53.94850 | 37928 ft | 436 kts | 261° |
| 2026-04-23 20:44 | 22.76443 | 53.91632 | 38125 ft | 435 kts | 261° |
| 2026-04-23 20:44 | 22.75825 | 53.88423 | 38319 ft | 435 kts | 261° |
| 2026-04-23 20:44 | 22.75208 | 53.85226 | 38492 ft | 434 kts | 261° |
| 2026-04-23 20:45 | 22.74587 | 53.82022 | 38608 ft | 434 kts | 261° |
| 2026-04-23 20:45 | 22.73965 | 53.78827 | 38715 ft | 434 kts | 261° |
| 2026-04-23 20:45 | 22.72915 | 53.73457 | 38855 ft | 435 kts | 261° |
| 2026-04-23 20:46 | 22.72286 | 53.70250 | 38981 ft | 435 kts | 261° |
| 2026-04-23 20:46 | 22.71664 | 53.67091 | 39089 ft | 435 kts | 261° |
| 2026-04-23 20:46 | 22.71034 | 53.63890 | 39195 ft | 435 kts | 261° |
| 2026-04-23 20:46 | 22.70403 | 53.60685 | 39281 ft | 435 kts | 261° |
| 2026-04-23 20:47 | 22.69139 | 53.54280 | 39470 ft | 435 kts | 261° |
| 2026-04-23 20:47 | 22.67873 | 53.47877 | 39655 ft | 435 kts | 261° |
| 2026-04-23 20:48 | 22.67239 | 53.44675 | 39789 ft | 434 kts | 261° |
| 2026-04-23 20:48 | 22.66604 | 53.41472 | 39836 ft | 434 kts | 261° |
| 2026-04-23 20:48 | 22.65338 | 53.35097 | 39841 ft | 433 kts | 261° |
| 2026-04-23 20:49 | 22.64070 | 53.28722 | 39836 ft | 433 kts | 261° |
| 2026-04-23 20:49 | 22.62799 | 53.22350 | 39836 ft | 433 kts | 261° |
| 2026-04-23 20:50 | 22.61526 | 53.15981 | 39837 ft | 433 kts | 261° |
| 2026-04-23 20:50 | 22.60253 | 53.09620 | 39837 ft | 433 kts | 261° |
| 2026-04-23 20:51 | 22.58977 | 53.03262 | 39837 ft | 433 kts | 261° |
| 2026-04-23 20:51 | 22.57697 | 52.96900 | 39838 ft | 432 kts | 261° |
| 2026-04-23 20:52 | 22.56418 | 52.90556 | 39835 ft | 432 kts | 261° |
| 2026-04-23 20:52 | 22.55136 | 52.84211 | 39834 ft | 432 kts | 260° |
| 2026-04-23 20:53 | 22.53853 | 52.77872 | 39834 ft | 432 kts | 260° |
| 2026-04-23 20:53 | 22.52567 | 52.71534 | 39835 ft | 431 kts | 260° |
| 2026-04-23 20:54 | 22.51280 | 52.65203 | 39834 ft | 431 kts | 260° |
| 2026-04-23 20:54 | 22.49992 | 52.58877 | 39834 ft | 431 kts | 260° |
| 2026-04-23 20:55 | 22.48700 | 52.52549 | 39835 ft | 431 kts | 260° |
| 2026-04-23 20:55 | 22.47407 | 52.46227 | 39835 ft | 431 kts | 260° |
| 2026-04-23 20:56 | 22.46119 | 52.39946 | 39834 ft | 431 kts | 260° |
| 2026-04-23 20:56 | 22.44821 | 52.33627 | 39832 ft | 430 kts | 260° |
| 2026-04-23 20:57 | 22.43521 | 52.27313 | 39835 ft | 430 kts | 260° |
| 2026-04-23 20:57 | 22.42220 | 52.21008 | 39832 ft | 429 kts | 260° |
| 2026-04-23 20:58 | 22.41044 | 52.14696 | 39835 ft | 427 kts | 265° |
| 2026-04-23 20:58 | 22.41005 | 52.08311 | 39839 ft | 425 kts | 275° |
| 2026-04-23 20:59 | 22.41503 | 52.01953 | 39838 ft | 425 kts | 276° |
| 2026-04-23 20:59 | 22.42081 | 51.95593 | 39840 ft | 425 kts | 276° |
| 2026-04-23 21:00 | 22.42650 | 51.89232 | 39842 ft | 425 kts | 276° |
| 2026-04-23 21:00 | 22.43201 | 51.82876 | 39843 ft | 425 kts | 276° |
| 2026-04-23 21:01 | 22.43743 | 51.76522 | 39848 ft | 425 kts | 276° |
| 2026-04-23 21:01 | 22.44282 | 51.70172 | 39845 ft | 424 kts | 276° |
| 2026-04-23 21:02 | 22.44815 | 51.63861 | 39851 ft | 424 kts | 275° |
| 2026-04-23 21:02 | 22.45349 | 51.57525 | 39848 ft | 423 kts | 275° |
| 2026-04-23 21:03 | 22.45882 | 51.51155 | 39854 ft | 422 kts | 276° |
| 2026-04-23 21:03 | 22.46405 | 51.44875 | 39853 ft | 422 kts | 276° |
| 2026-04-23 21:04 | 22.46930 | 51.38554 | 39857 ft | 422 kts | 275° |
| 2026-04-23 21:04 | 22.47453 | 51.32229 | 39858 ft | 422 kts | 275° |
| 2026-04-23 21:05 | 22.47972 | 51.25914 | 39856 ft | 422 kts | 275° |
| 2026-04-23 21:05 | 22.48489 | 51.19595 | 39857 ft | 422 kts | 275° |
| 2026-04-23 21:06 | 22.49003 | 51.13275 | 39856 ft | 422 kts | 275° |
| 2026-04-23 21:06 | 22.49514 | 51.06963 | 39856 ft | 422 kts | 275° |
| 2026-04-23 21:07 | 22.50023 | 51.00645 | 39856 ft | 422 kts | 275° |
| 2026-04-23 21:07 | 22.50530 | 50.94330 | 39871 ft | 422 kts | 275° |
| 2026-04-23 21:08 | 22.51034 | 50.88017 | 39862 ft | 421 kts | 275° |
| 2026-04-23 21:08 | 22.51535 | 50.81715 | 39862 ft | 421 kts | 275° |
| 2026-04-23 21:09 | 22.52033 | 50.75415 | 39865 ft | 421 kts | 275° |
| 2026-04-23 21:09 | 22.52528 | 50.69116 | 39864 ft | 421 kts | 275° |
| 2026-04-23 21:10 | 22.53018 | 50.62850 | 39861 ft | 420 kts | 275° |
| 2026-04-23 21:10 | 22.53509 | 50.56550 | 39862 ft | 421 kts | 275° |
| 2026-04-23 21:11 | 22.53997 | 50.50244 | 39862 ft | 421 kts | 275° |
| 2026-04-23 21:11 | 22.54483 | 50.43936 | 39861 ft | 421 kts | 275° |
| 2026-04-23 21:12 | 22.54967 | 50.37629 | 39864 ft | 421 kts | 275° |
| 2026-04-23 21:12 | 22.55448 | 50.31322 | 39865 ft | 421 kts | 275° |
| 2026-04-23 21:13 | 22.55926 | 50.25014 | 39864 ft | 421 kts | 275° |
| 2026-04-23 21:13 | 22.56403 | 50.18706 | 39865 ft | 421 kts | 275° |
| 2026-04-23 21:14 | 22.56876 | 50.12401 | 39867 ft | 420 kts | 275° |
| 2026-04-23 21:14 | 22.57346 | 50.06103 | 39867 ft | 420 kts | 275° |
| 2026-04-23 21:15 | 22.57814 | 49.99805 | 39867 ft | 420 kts | 275° |
| 2026-04-23 21:15 | 22.58279 | 49.93514 | 39866 ft | 419 kts | 275° |
| 2026-04-23 21:16 | 22.58740 | 49.87234 | 39867 ft | 419 kts | 275° |
| 2026-04-23 21:16 | 22.59200 | 49.80953 | 39867 ft | 419 kts | 275° |
| 2026-04-23 21:17 | 22.59656 | 49.74676 | 39867 ft | 418 kts | 275° |
| 2026-04-23 21:17 | 22.60109 | 49.68409 | 39870 ft | 416 kts | 275° |
| 2026-04-23 21:18 | 22.60558 | 49.62171 | 39870 ft | 416 kts | 275° |
| 2026-04-23 21:18 | 22.61005 | 49.55932 | 39871 ft | 416 kts | 275° |
| 2026-04-23 21:19 | 22.61448 | 49.49697 | 39871 ft | 415 kts | 275° |
| 2026-04-23 21:19 | 22.61887 | 49.43485 | 39873 ft | 413 kts | 275° |
| 2026-04-23 21:20 | 22.62324 | 49.37283 | 39873 ft | 413 kts | 275° |
| 2026-04-23 21:20 | 22.62758 | 49.31080 | 39878 ft | 413 kts | 275° |
| 2026-04-23 21:21 | 22.63189 | 49.24882 | 39878 ft | 412 kts | 275° |
| 2026-04-23 21:21 | 22.63613 | 49.18755 | 39878 ft | 411 kts | 275° |
| 2026-04-23 21:22 | 22.64038 | 49.12584 | 39881 ft | 411 kts | 275° |
| 2026-04-23 21:22 | 22.64460 | 49.06414 | 39883 ft | 411 kts | 275° |
| 2026-04-23 21:23 | 22.64879 | 49.00255 | 39884 ft | 409 kts | 275° |
| 2026-04-23 21:23 | 22.65295 | 48.94116 | 39895 ft | 409 kts | 275° |
| 2026-04-23 21:24 | 22.65710 | 48.87957 | 39881 ft | 410 kts | 275° |
| 2026-04-23 21:24 | 22.66122 | 48.81797 | 39889 ft | 411 kts | 275° |
| 2026-04-23 21:25 | 22.66532 | 48.75631 | 39889 ft | 411 kts | 275° |
| 2026-04-23 21:25 | 22.66939 | 48.69462 | 39889 ft | 411 kts | 275° |
| 2026-04-23 21:26 | 22.67345 | 48.63296 | 39891 ft | 410 kts | 275° |
| 2026-04-23 21:26 | 22.67746 | 48.57148 | 39891 ft | 409 kts | 275° |
| 2026-04-23 21:27 | 22.68145 | 48.51013 | 39894 ft | 408 kts | 275° |
| 2026-04-23 21:27 | 22.68541 | 48.44878 | 39894 ft | 409 kts | 275° |
| 2026-04-23 21:28 | 22.68934 | 48.38751 | 39898 ft | 407 kts | 275° |
| 2026-04-23 21:28 | 22.69321 | 48.32681 | 39898 ft | 406 kts | 275° |
| 2026-04-23 21:29 | 22.69710 | 48.26571 | 39902 ft | 408 kts | 275° |
| 2026-04-23 21:29 | 22.70097 | 48.20438 | 39897 ft | 408 kts | 275° |
| 2026-04-23 21:30 | 22.70481 | 48.14309 | 39903 ft | 407 kts | 275° |
| 2026-04-23 21:30 | 22.70861 | 48.08196 | 39903 ft | 407 kts | 275° |
| 2026-04-23 21:31 | 22.71239 | 48.02088 | 39911 ft | 407 kts | 275° |
| 2026-04-23 21:31 | 22.71614 | 47.95985 | 39911 ft | 405 kts | 275° |
| 2026-04-23 21:32 | 22.71986 | 47.89907 | 39911 ft | 404 kts | 275° |
| 2026-04-23 21:32 | 22.72355 | 47.83826 | 39914 ft | 404 kts | 275° |
| 2026-04-23 21:33 | 22.72722 | 47.77746 | 39920 ft | 404 kts | 275° |
| 2026-04-23 21:33 | 22.73025 | 47.72705 | 39926 ft | 403 kts | 275° |
| 2026-04-23 21:34 | 22.73386 | 47.66648 | 39925 ft | 403 kts | 274° |
| 2026-04-23 21:34 | 22.73747 | 47.60574 | 39924 ft | 404 kts | 274° |
| 2026-04-23 21:35 | 22.74105 | 47.54500 | 39935 ft | 404 kts | 274° |
| 2026-04-23 21:35 | 22.74459 | 47.48433 | 39936 ft | 403 kts | 274° |
| 2026-04-23 21:36 | 22.74987 | 47.39341 | 39936 ft | 403 kts | 274° |
| 2026-04-23 21:37 | 22.75335 | 47.33287 | 39937 ft | 402 kts | 274° |
| 2026-04-23 21:37 | 22.75680 | 47.27259 | 39947 ft | 401 kts | 274° |
| 2026-04-23 21:38 | 22.76023 | 47.21237 | 39945 ft | 401 kts | 274° |
| 2026-04-23 21:38 | 22.76375 | 47.15214 | 39947 ft | 400 kts | 274° |
| 2026-04-23 21:39 | 22.76850 | 47.09207 | 39945 ft | 400 kts | 275° |
| 2026-04-23 21:39 | 22.77358 | 47.03210 | 39957 ft | 400 kts | 275° |
| 2026-04-23 21:40 | 22.77848 | 46.97192 | 39966 ft | 401 kts | 275° |
| 2026-04-23 21:40 | 22.78323 | 46.91176 | 39960 ft | 401 kts | 275° |
| 2026-04-23 21:41 | 22.78788 | 46.85199 | 39961 ft | 401 kts | 274° |
| 2026-04-23 21:41 | 22.79255 | 46.79180 | 39965 ft | 401 kts | 274° |
| 2026-04-23 21:42 | 22.79720 | 46.73163 | 39966 ft | 401 kts | 274° |
| 2026-04-23 21:42 | 22.80183 | 46.67150 | 39966 ft | 401 kts | 274° |
| 2026-04-23 21:43 | 22.80643 | 46.61134 | 39966 ft | 401 kts | 274° |
| 2026-04-23 21:43 | 22.81102 | 46.55116 | 39970 ft | 400 kts | 274° |
| 2026-04-23 21:44 | 22.81557 | 46.49104 | 39988 ft | 400 kts | 274° |
| 2026-04-23 21:44 | 22.82011 | 46.43094 | 39965 ft | 401 kts | 274° |
| 2026-04-23 21:45 | 22.82465 | 46.37067 | 39964 ft | 401 kts | 274° |
| 2026-04-23 21:45 | 22.82914 | 46.31045 | 39960 ft | 400 kts | 274° |
| 2026-04-23 21:46 | 22.83355 | 46.25028 | 39961 ft | 400 kts | 274° |
| 2026-04-23 21:46 | 22.83792 | 46.19059 | 39949 ft | 400 kts | 274° |
| 2026-04-23 21:47 | 22.84231 | 46.13047 | 39946 ft | 400 kts | 274° |
| 2026-04-23 21:47 | 22.84667 | 46.07042 | 39938 ft | 400 kts | 274° |
| 2026-04-23 21:48 | 22.85102 | 46.01038 | 39933 ft | 399 kts | 274° |
| 2026-04-23 21:48 | 22.85534 | 45.95032 | 39935 ft | 400 kts | 274° |
| 2026-04-23 21:49 | 22.85965 | 45.89023 | 39938 ft | 400 kts | 273° |
| 2026-04-23 21:49 | 22.86393 | 45.83010 | 39929 ft | 400 kts | 273° |
| 2026-04-23 21:50 | 22.86819 | 45.76993 | 39928 ft | 400 kts | 273° |
| 2026-04-23 21:50 | 22.87242 | 45.70981 | 39927 ft | 400 kts | 273° |
| 2026-04-23 21:51 | 22.87663 | 45.64971 | 39935 ft | 400 kts | 273° |
| 2026-04-23 21:51 | 22.88083 | 45.58955 | 39936 ft | 400 kts | 273° |
| 2026-04-23 21:52 | 22.88499 | 45.52944 | 39931 ft | 400 kts | 273° |
| 2026-04-23 21:52 | 22.88913 | 45.46933 | 39935 ft | 400 kts | 273° |
| 2026-04-23 21:53 | 22.89326 | 45.40912 | 39937 ft | 400 kts | 273° |
| 2026-04-23 21:53 | 22.89736 | 45.34892 | 39937 ft | 401 kts | 273° |
| 2026-04-23 21:54 | 22.90142 | 45.28906 | 39937 ft | 401 kts | 273° |
| 2026-04-23 21:54 | 22.90551 | 45.22838 | 39923 ft | 401 kts | 273° |
| 2026-04-23 21:55 | 22.90955 | 45.16812 | 39937 ft | 401 kts | 273° |
| 2026-04-23 21:55 | 22.91354 | 45.10820 | 39933 ft | 401 kts | 273° |
| 2026-04-23 21:56 | 22.91755 | 45.04784 | 39938 ft | 401 kts | 273° |
| 2026-04-23 21:56 | 22.92151 | 44.98747 | 39932 ft | 401 kts | 272° |
| 2026-04-23 21:57 | 22.92545 | 44.92726 | 39932 ft | 399 kts | 272° |
| 2026-04-23 21:57 | 22.92935 | 44.86722 | 39933 ft | 399 kts | 272° |
| 2026-04-23 21:58 | 22.93324 | 44.80716 | 39935 ft | 399 kts | 272° |
| 2026-04-23 21:58 | 22.93709 | 44.74713 | 39935 ft | 399 kts | 272° |
| 2026-04-23 21:59 | 22.94162 | 44.68717 | 39938 ft | 400 kts | 276° |
| 2026-04-23 21:59 | 22.95500 | 44.62848 | 39939 ft | 403 kts | 283° |
| 2026-04-23 22:00 | 22.98142 | 44.54188 | 39943 ft | 403 kts | 284° |
| 2026-04-23 22:00 | 22.99944 | 44.48429 | 39946 ft | 403 kts | 284° |
| 2026-04-23 22:01 | 23.01731 | 44.42664 | 39952 ft | 403 kts | 284° |
| 2026-04-23 22:01 | 23.03506 | 44.36895 | 39941 ft | 403 kts | 284° |
| 2026-04-23 22:02 | 23.05278 | 44.31124 | 39959 ft | 403 kts | 284° |
| 2026-04-23 22:02 | 23.07050 | 44.25343 | 39951 ft | 403 kts | 284° |
| 2026-04-23 22:03 | 23.08806 | 44.19609 | 39949 ft | 403 kts | 284° |
| 2026-04-23 22:03 | 23.10575 | 44.13825 | 39946 ft | 403 kts | 284° |
| 2026-04-23 22:04 | 23.12343 | 44.08030 | 39941 ft | 404 kts | 284° |
| 2026-04-23 22:04 | 23.14108 | 44.02242 | 39962 ft | 404 kts | 284° |
| 2026-04-23 22:05 | 23.15871 | 43.96449 | 39960 ft | 404 kts | 284° |
| 2026-04-23 22:05 | 23.17636 | 43.90650 | 39963 ft | 404 kts | 284° |
| 2026-04-23 22:06 | 23.19397 | 43.84851 | 39960 ft | 404 kts | 284° |
| 2026-04-23 22:06 | 23.21156 | 43.79045 | 39963 ft | 404 kts | 283° |
| 2026-04-23 22:07 | 23.22913 | 43.73237 | 39967 ft | 405 kts | 283° |
| 2026-04-23 22:07 | 23.24671 | 43.67423 | 39965 ft | 405 kts | 283° |
| 2026-04-23 22:08 | 23.26426 | 43.61609 | 39975 ft | 405 kts | 283° |
| 2026-04-23 22:08 | 23.28181 | 43.55790 | 39976 ft | 405 kts | 283° |
| 2026-04-23 22:09 | 23.29936 | 43.49967 | 39976 ft | 405 kts | 283° |
| 2026-04-23 22:09 | 23.31685 | 43.44137 | 39976 ft | 405 kts | 283° |
| 2026-04-23 22:10 | 23.33431 | 43.38313 | 39979 ft | 405 kts | 283° |
| 2026-04-23 22:10 | 23.35174 | 43.32493 | 39984 ft | 405 kts | 283° |
| 2026-04-23 22:11 | 23.36916 | 43.26673 | 39986 ft | 404 kts | 283° |
| 2026-04-23 22:11 | 23.38654 | 43.20855 | 39989 ft | 404 kts | 283° |
| 2026-04-23 22:12 | 23.40391 | 43.15030 | 39988 ft | 404 kts | 283° |
| 2026-04-23 22:12 | 23.42117 | 43.09248 | 39981 ft | 404 kts | 283° |
| 2026-04-23 22:13 | 23.43841 | 43.03427 | 39990 ft | 404 kts | 283° |
| 2026-04-23 22:13 | 23.45564 | 42.97595 | 39986 ft | 405 kts | 283° |
| 2026-04-23 22:14 | 23.47292 | 42.91747 | 39987 ft | 406 kts | 283° |
| 2026-04-23 22:14 | 23.49018 | 42.85901 | 39982 ft | 406 kts | 283° |
| 2026-04-23 22:15 | 23.50745 | 42.80047 | 39981 ft | 406 kts | 283° |
| 2026-04-23 22:15 | 23.52469 | 42.74194 | 39983 ft | 406 kts | 283° |
| 2026-04-23 22:16 | 23.54194 | 42.68341 | 39979 ft | 406 kts | 283° |
| 2026-04-23 22:16 | 23.55917 | 42.62485 | 39974 ft | 406 kts | 283° |
| 2026-04-23 22:17 | 23.57639 | 42.56622 | 39975 ft | 407 kts | 282° |
| 2026-04-23 22:17 | 23.59364 | 42.50740 | 39968 ft | 407 kts | 282° |
| 2026-04-23 22:18 | 23.61088 | 42.44855 | 39968 ft | 407 kts | 282° |
| 2026-04-23 22:18 | 23.62798 | 42.39009 | 39973 ft | 407 kts | 282° |
| 2026-04-23 22:19 | 23.64513 | 42.33135 | 39963 ft | 407 kts | 282° |
| 2026-04-23 22:19 | 23.66228 | 42.27260 | 39964 ft | 406 kts | 282° |
| 2026-04-23 22:20 | 23.67938 | 42.21378 | 39963 ft | 406 kts | 282° |
| 2026-04-23 22:20 | 23.69636 | 42.15499 | 39961 ft | 406 kts | 282° |
| 2026-04-23 22:21 | 23.71334 | 42.09620 | 39958 ft | 406 kts | 282° |
| 2026-04-23 22:21 | 23.73031 | 42.03741 | 39957 ft | 406 kts | 282° |
| 2026-04-23 22:22 | 23.74728 | 41.97861 | 39962 ft | 406 kts | 282° |
| 2026-04-23 22:22 | 23.76428 | 41.91990 | 39954 ft | 405 kts | 282° |
| 2026-04-23 22:23 | 23.78121 | 41.86123 | 39953 ft | 405 kts | 282° |
| 2026-04-23 22:23 | 23.79526 | 41.81245 | 39934 ft | 405 kts | 282° |
| 2026-04-23 22:24 | 23.81214 | 41.75378 | 39943 ft | 405 kts | 281° |
| 2026-04-23 22:24 | 23.82893 | 41.69527 | 39939 ft | 403 kts | 281° |
| 2026-04-23 22:25 | 23.84570 | 41.63678 | 39936 ft | 403 kts | 281° |
| 2026-04-23 22:25 | 23.86243 | 41.57835 | 39936 ft | 403 kts | 281° |
| 2026-04-23 22:26 | 23.87918 | 41.51984 | 39935 ft | 403 kts | 281° |
| 2026-04-23 22:26 | 23.89574 | 41.46145 | 39931 ft | 402 kts | 281° |
| 2026-04-23 22:27 | 23.91225 | 41.40307 | 39927 ft | 402 kts | 281° |
| 2026-04-23 22:27 | 23.92880 | 41.34463 | 39932 ft | 402 kts | 281° |
| 2026-04-23 22:28 | 23.94541 | 41.28615 | 39928 ft | 403 kts | 281° |
| 2026-04-23 22:28 | 23.96196 | 41.22766 | 39923 ft | 403 kts | 281° |
| 2026-04-23 22:29 | 23.97848 | 41.16920 | 39924 ft | 403 kts | 281° |
| 2026-04-23 22:29 | 23.99488 | 41.11110 | 39925 ft | 402 kts | 281° |
| 2026-04-23 22:30 | 24.01136 | 41.05265 | 39926 ft | 402 kts | 281° |
| 2026-04-23 22:30 | 24.02780 | 40.99423 | 39922 ft | 402 kts | 281° |
| 2026-04-23 22:31 | 24.04427 | 40.93571 | 39919 ft | 402 kts | 281° |
| 2026-04-23 22:31 | 24.06068 | 40.87726 | 39919 ft | 402 kts | 281° |
| 2026-04-23 22:32 | 24.07702 | 40.81885 | 39916 ft | 401 kts | 281° |
| 2026-04-23 22:32 | 24.09334 | 40.76044 | 39916 ft | 401 kts | 281° |
| 2026-04-23 22:33 | 24.10966 | 40.70199 | 39914 ft | 401 kts | 281° |
| 2026-04-23 22:33 | 24.12595 | 40.64355 | 39911 ft | 401 kts | 281° |
| 2026-04-23 22:34 | 24.14221 | 40.58516 | 39911 ft | 401 kts | 281° |
| 2026-04-23 22:34 | 24.15897 | 40.52677 | 39908 ft | 404 kts | 284° |
| 2026-04-23 22:35 | 24.18288 | 40.47051 | 39927 ft | 410 kts | 289° |
| 2026-04-23 22:35 | 24.20930 | 40.41498 | 39911 ft | 411 kts | 289° |
| 2026-04-23 22:36 | 24.23607 | 40.35963 | 39909 ft | 411 kts | 289° |
| 2026-04-23 22:36 | 24.26276 | 40.30420 | 39908 ft | 411 kts | 289° |
| 2026-04-23 22:37 | 24.28935 | 40.24867 | 39927 ft | 411 kts | 289° |
| 2026-04-23 22:37 | 24.31587 | 40.19313 | 39911 ft | 411 kts | 289° |
| 2026-04-23 22:38 | 24.34238 | 40.13754 | 39908 ft | 412 kts | 289° |
| 2026-04-23 22:38 | 24.36890 | 40.08189 | 39904 ft | 412 kts | 289° |
| 2026-04-23 22:39 | 24.39539 | 40.02624 | 39937 ft | 412 kts | 289° |
| 2026-04-23 22:39 | 24.42185 | 39.97060 | 39895 ft | 411 kts | 289° |
| 2026-04-23 22:40 | 24.44828 | 39.91492 | 39889 ft | 411 kts | 289° |
| 2026-04-23 22:41 | 24.48785 | 39.83147 | 39897 ft | 411 kts | 289° |
| 2026-04-23 22:41 | 24.51422 | 39.77575 | 39887 ft | 411 kts | 289° |
| 2026-04-23 22:42 | 24.54359 | 39.72166 | 39884 ft | 423 kts | 297° |
| 2026-04-23 22:42 | 24.56300 | 39.69690 | 39884 ft | 434 kts | 304° |
| 2026-04-23 22:42 | 24.58595 | 39.67471 | 39886 ft | 444 kts | 310° |
| 2026-04-23 22:43 | 24.63564 | 39.63380 | 39912 ft | 449 kts | 313° |
| 2026-04-23 22:43 | 24.68650 | 39.59385 | 39909 ft | 449 kts | 313° |
| 2026-04-23 22:44 | 24.73723 | 39.55382 | 39907 ft | 449 kts | 313° |
| 2026-04-23 22:44 | 24.78783 | 39.51345 | 39903 ft | 449 kts | 312° |
| 2026-04-23 22:45 | 24.83843 | 39.47292 | 39901 ft | 450 kts | 312° |
| 2026-04-23 22:45 | 24.88896 | 39.43238 | 39904 ft | 450 kts | 312° |
| 2026-04-23 22:46 | 24.93955 | 39.39175 | 39892 ft | 450 kts | 312° |
| 2026-04-23 22:46 | 24.99014 | 39.35111 | 39910 ft | 450 kts | 312° |
| 2026-04-23 22:47 | 25.04082 | 39.31034 | 39896 ft | 451 kts | 312° |
| 2026-04-23 22:47 | 25.09159 | 39.26947 | 39885 ft | 452 kts | 312° |
| 2026-04-23 22:48 | 25.14230 | 39.22861 | 39890 ft | 452 kts | 312° |
| 2026-04-23 22:48 | 25.19288 | 39.18749 | 39889 ft | 448 kts | 310° |
| 2026-04-23 22:49 | 25.23539 | 39.13960 | 39883 ft | 427 kts | 296° |
| 2026-04-23 22:49 | 25.26858 | 39.08618 | 39864 ft | 424 kts | 293° |
| 2026-04-23 22:50 | 25.30045 | 39.03143 | 39877 ft | 424 kts | 293° |
| 2026-04-23 22:50 | 25.33239 | 38.97620 | 39867 ft | 424 kts | 293° |
| 2026-04-23 22:51 | 25.36426 | 38.92140 | 39839 ft | 424 kts | 293° |
| 2026-04-23 22:51 | 25.39601 | 38.86694 | 39851 ft | 424 kts | 293° |
| 2026-04-23 22:52 | 25.42803 | 38.81201 | 39842 ft | 425 kts | 293° |
| 2026-04-23 22:52 | 25.46004 | 38.75705 | 39839 ft | 424 kts | 293° |
| 2026-04-23 22:53 | 25.49198 | 38.70215 | 39829 ft | 424 kts | 293° |
| 2026-04-23 22:53 | 25.52387 | 38.64722 | 39825 ft | 424 kts | 293° |
| 2026-04-23 22:54 | 25.55575 | 38.59224 | 39818 ft | 425 kts | 293° |
| 2026-04-23 22:54 | 25.58768 | 38.53711 | 39818 ft | 425 kts | 293° |
| 2026-04-23 22:55 | 25.61957 | 38.48201 | 39821 ft | 425 kts | 293° |
| 2026-04-23 22:55 | 25.65146 | 38.42684 | 39813 ft | 425 kts | 293° |
| 2026-04-23 22:56 | 25.68332 | 38.37166 | 39844 ft | 425 kts | 292° |
| 2026-04-23 22:56 | 25.71514 | 38.31650 | 39812 ft | 424 kts | 292° |
| 2026-04-23 22:57 | 25.74687 | 38.26139 | 39804 ft | 424 kts | 292° |
| 2026-04-23 22:57 | 25.77857 | 38.20628 | 39803 ft | 423 kts | 293° |
| 2026-04-23 22:58 | 25.81022 | 38.15117 | 39797 ft | 424 kts | 292° |
| 2026-04-23 22:58 | 25.84192 | 38.09594 | 39807 ft | 425 kts | 292° |
| 2026-04-23 22:59 | 25.87366 | 38.04059 | 39801 ft | 425 kts | 292° |
| 2026-04-23 22:59 | 25.90518 | 37.98554 | 39807 ft | 425 kts | 292° |
| 2026-04-23 23:00 | 25.93689 | 37.93004 | 39805 ft | 426 kts | 292° |
| 2026-04-23 23:00 | 25.96880 | 37.87421 | 39826 ft | 431 kts | 292° |
| 2026-04-23 23:01 | 25.99736 | 37.81657 | 39823 ft | 418 kts | 283° |
| 2026-04-23 23:01 | 26.01245 | 37.75561 | 39831 ft | 405 kts | 273° |
| 2026-04-23 23:02 | 26.02142 | 37.69398 | 39839 ft | 404 kts | 271° |
| 2026-04-23 23:02 | 26.02943 | 37.63223 | 39834 ft | 405 kts | 271° |
| 2026-04-23 23:03 | 26.03756 | 37.57025 | 39834 ft | 404 kts | 271° |
| 2026-04-23 23:03 | 26.04587 | 37.50848 | 39829 ft | 404 kts | 271° |
| 2026-04-23 23:04 | 26.05422 | 37.44677 | 39826 ft | 403 kts | 271° |
| 2026-04-23 23:04 | 26.06247 | 37.38504 | 39809 ft | 404 kts | 271° |
| 2026-04-23 23:05 | 26.07070 | 37.32322 | 39806 ft | 404 kts | 271° |
| 2026-04-23 23:05 | 26.07890 | 37.26141 | 39798 ft | 404 kts | 271° |
| 2026-04-23 23:06 | 26.08709 | 37.19953 | 39799 ft | 404 kts | 271° |
| 2026-04-23 23:06 | 26.09526 | 37.13768 | 39785 ft | 404 kts | 271° |
| 2026-04-23 23:07 | 26.10342 | 37.07577 | 39781 ft | 404 kts | 271° |
| 2026-04-23 23:07 | 26.11153 | 37.01393 | 39782 ft | 404 kts | 271° |
| 2026-04-23 23:08 | 26.11963 | 36.95202 | 39783 ft | 405 kts | 271° |
| 2026-04-23 23:08 | 26.12770 | 36.88995 | 39759 ft | 405 kts | 271° |
| 2026-04-23 23:09 | 26.13571 | 36.82833 | 39765 ft | 404 kts | 271° |
| 2026-04-23 23:09 | 26.14377 | 36.76607 | 39766 ft | 404 kts | 271° |
| 2026-04-23 23:10 | 26.15041 | 36.71460 | 39763 ft | 404 kts | 271° |
| 2026-04-23 23:10 | 26.15836 | 36.65258 | 39761 ft | 405 kts | 271° |
| 2026-04-23 23:11 | 26.16761 | 36.58033 | 39760 ft | 405 kts | 271° |
| 2026-04-23 23:11 | 26.17999 | 36.51853 | 39747 ft | 416 kts | 281° |
| 2026-04-23 23:12 | 26.20142 | 36.46905 | 39752 ft | 433 kts | 292° |
| 2026-04-23 23:12 | 26.21969 | 36.44193 | 39749 ft | 444 kts | 301° |
| 2026-04-23 23:12 | 26.24028 | 36.41662 | 39746 ft | 448 kts | 302° |
| 2026-04-23 23:13 | 26.28416 | 36.36622 | 39782 ft | 451 kts | 303° |
| 2026-04-23 23:13 | 26.32794 | 36.31668 | 39756 ft | 452 kts | 303° |
| 2026-04-23 23:14 | 26.37180 | 36.26648 | 39760 ft | 452 kts | 303° |
| 2026-04-23 23:14 | 26.41544 | 36.21612 | 39766 ft | 451 kts | 303° |
| 2026-04-23 23:15 | 26.45904 | 36.16563 | 39755 ft | 452 kts | 303° |
| 2026-04-23 23:15 | 26.50259 | 36.11517 | 39768 ft | 451 kts | 303° |
| 2026-04-23 23:16 | 26.54615 | 36.06463 | 39764 ft | 451 kts | 303° |
| 2026-04-23 23:16 | 26.58967 | 36.01411 | 39773 ft | 451 kts | 303° |
| 2026-04-23 23:17 | 26.63317 | 35.96354 | 39762 ft | 451 kts | 303° |
| 2026-04-23 23:17 | 26.67667 | 35.91291 | 39769 ft | 451 kts | 303° |
| 2026-04-23 23:18 | 26.72021 | 35.86216 | 39765 ft | 452 kts | 303° |
| 2026-04-23 23:18 | 26.76372 | 35.81142 | 39768 ft | 452 kts | 303° |
| 2026-04-23 23:19 | 26.80723 | 35.76066 | 39771 ft | 452 kts | 303° |
| 2026-04-23 23:19 | 26.85076 | 35.70977 | 39769 ft | 452 kts | 303° |
| 2026-04-23 23:20 | 26.89426 | 35.65880 | 39772 ft | 453 kts | 303° |
| 2026-04-23 23:20 | 26.93777 | 35.60780 | 39771 ft | 453 kts | 303° |
| 2026-04-23 23:21 | 26.98127 | 35.55676 | 39768 ft | 453 kts | 303° |
| 2026-04-23 23:21 | 27.02479 | 35.50565 | 39771 ft | 453 kts | 303° |
| 2026-04-23 23:22 | 27.06822 | 35.45456 | 39775 ft | 453 kts | 303° |
| 2026-04-23 23:22 | 27.11174 | 35.40331 | 39774 ft | 453 kts | 303° |
| 2026-04-23 23:23 | 27.15523 | 35.35204 | 39775 ft | 453 kts | 303° |
| 2026-04-23 23:23 | 27.19843 | 35.30106 | 39774 ft | 453 kts | 303° |
| 2026-04-23 23:24 | 27.24186 | 35.24973 | 39776 ft | 453 kts | 303° |
| 2026-04-23 23:24 | 27.28527 | 35.19837 | 39778 ft | 453 kts | 303° |
| 2026-04-23 23:25 | 27.32864 | 35.14699 | 39773 ft | 453 kts | 303° |
| 2026-04-23 23:25 | 27.37196 | 35.09560 | 39771 ft | 453 kts | 303° |
| 2026-04-23 23:26 | 27.41533 | 35.04409 | 39784 ft | 453 kts | 303° |
| 2026-04-23 23:26 | 27.45859 | 34.99268 | 39774 ft | 452 kts | 303° |
| 2026-04-23 23:27 | 27.50178 | 34.94126 | 39773 ft | 452 kts | 303° |
| 2026-04-23 23:27 | 27.54602 | 34.89066 | 39777 ft | 456 kts | 306° |
| 2026-04-23 23:28 | 27.59288 | 34.84207 | 39773 ft | 458 kts | 307° |
| 2026-04-23 23:28 | 27.63990 | 34.79355 | 39781 ft | 457 kts | 307° |
| 2026-04-23 23:29 | 27.68642 | 34.74474 | 39783 ft | 457 kts | 306° |
| 2026-04-23 23:29 | 27.73279 | 34.69561 | 39789 ft | 457 kts | 306° |
| 2026-04-23 23:30 | 27.77902 | 34.64648 | 39813 ft | 456 kts | 307° |
| 2026-04-23 23:30 | 27.82523 | 34.59736 | 39811 ft | 456 kts | 307° |
| 2026-04-23 23:31 | 27.87144 | 34.54821 | 39819 ft | 456 kts | 307° |
| 2026-04-23 23:31 | 27.91758 | 34.49905 | 39825 ft | 456 kts | 307° |
| 2026-04-23 23:32 | 27.96343 | 34.45019 | 39831 ft | 456 kts | 307° |
| 2026-04-23 23:32 | 28.00786 | 34.39905 | 39829 ft | 448 kts | 301° |
| 2026-04-23 23:33 | 28.04762 | 34.34542 | 39833 ft | 448 kts | 300° |
| 2026-04-23 23:33 | 28.08694 | 34.29091 | 39833 ft | 447 kts | 300° |
| 2026-04-23 23:34 | 28.12620 | 34.23629 | 39840 ft | 447 kts | 300° |
| 2026-04-23 23:34 | 28.16547 | 34.18173 | 39846 ft | 445 kts | 300° |
| 2026-04-23 23:35 | 28.20460 | 34.12734 | 39844 ft | 445 kts | 300° |
| 2026-04-23 23:35 | 28.24383 | 34.07283 | 39891 ft | 446 kts | 300° |
| 2026-04-23 23:36 | 28.28296 | 34.01832 | 39891 ft | 447 kts | 300° |
| 2026-04-23 23:36 | 28.32226 | 33.96341 | 39876 ft | 447 kts | 300° |
| 2026-04-23 23:37 | 28.36142 | 33.90882 | 39887 ft | 445 kts | 300° |
| 2026-04-23 23:37 | 28.40045 | 33.85436 | 39882 ft | 444 kts | 300° |
| 2026-04-23 23:38 | 28.43933 | 33.79992 | 39884 ft | 444 kts | 300° |
| 2026-04-23 23:38 | 28.47819 | 33.74545 | 39871 ft | 443 kts | 300° |
| 2026-04-23 23:39 | 28.51701 | 33.69099 | 39873 ft | 443 kts | 300° |
| 2026-04-23 23:39 | 28.55585 | 33.63652 | 39876 ft | 444 kts | 301° |
| 2026-04-23 23:40 | 28.59484 | 33.58185 | 39878 ft | 445 kts | 301° |
| 2026-04-23 23:40 | 28.63379 | 33.52714 | 39875 ft | 445 kts | 301° |
| 2026-04-23 23:41 | 28.67275 | 33.47230 | 39867 ft | 445 kts | 300° |
| 2026-04-23 23:41 | 28.71163 | 33.41734 | 39882 ft | 445 kts | 300° |
| 2026-04-23 23:42 | 28.75043 | 33.36243 | 39881 ft | 445 kts | 300° |
| 2026-04-23 23:42 | 28.78924 | 33.30750 | 39878 ft | 445 kts | 300° |
| 2026-04-23 23:43 | 28.82809 | 33.25244 | 39872 ft | 445 kts | 300° |
| 2026-04-23 23:43 | 28.86666 | 33.19774 | 39884 ft | 445 kts | 300° |
| 2026-04-23 23:44 | 28.90544 | 33.14263 | 39887 ft | 445 kts | 301° |
| 2026-04-23 23:44 | 28.94422 | 33.08743 | 39883 ft | 446 kts | 301° |
| 2026-04-23 23:45 | 28.98305 | 33.03211 | 39881 ft | 446 kts | 301° |
| 2026-04-23 23:45 | 29.02187 | 32.97675 | 39889 ft | 446 kts | 301° |
| 2026-04-23 23:46 | 29.06068 | 32.92132 | 39890 ft | 446 kts | 300° |
| 2026-04-23 23:46 | 29.09942 | 32.86589 | 39891 ft | 447 kts | 301° |
| 2026-04-23 23:47 | 29.13820 | 32.81034 | 39891 ft | 447 kts | 301° |
| 2026-04-23 23:47 | 29.17700 | 32.75471 | 39892 ft | 447 kts | 301° |
| 2026-04-23 23:48 | 29.21577 | 32.69904 | 39901 ft | 447 kts | 301° |
| 2026-04-23 23:48 | 29.25449 | 32.64336 | 39900 ft | 447 kts | 301° |
| 2026-04-23 23:49 | 29.31250 | 32.55964 | 39910 ft | 447 kts | 301° |
| 2026-04-23 23:49 | 29.35091 | 32.50362 | 39919 ft | 447 kts | 301° |
| 2026-04-23 23:50 | 29.38927 | 32.44757 | 39916 ft | 447 kts | 301° |
| 2026-04-23 23:50 | 29.42738 | 32.39189 | 39922 ft | 446 kts | 301° |
| 2026-04-23 23:51 | 29.46567 | 32.33590 | 39935 ft | 446 kts | 301° |
| 2026-04-23 23:51 | 29.50400 | 32.27978 | 39927 ft | 447 kts | 301° |
| 2026-04-23 23:52 | 29.54231 | 32.22359 | 39947 ft | 447 kts | 301° |
| 2026-04-23 23:52 | 29.58058 | 32.16742 | 39932 ft | 447 kts | 301° |
| 2026-04-23 23:53 | 29.61885 | 32.11119 | 39933 ft | 447 kts | 301° |
| 2026-04-23 23:53 | 29.65706 | 32.05493 | 39941 ft | 447 kts | 301° |
| 2026-04-23 23:54 | 29.69530 | 31.99856 | 39934 ft | 447 kts | 301° |
| 2026-04-23 23:54 | 29.73350 | 31.94217 | 39936 ft | 447 kts | 301° |
| 2026-04-23 23:55 | 29.77169 | 31.88573 | 39936 ft | 447 kts | 301° |
| 2026-04-23 23:55 | 29.80949 | 31.82897 | 39931 ft | 446 kts | 300° |
| 2026-04-23 23:56 | 29.84618 | 31.77143 | 39932 ft | 446 kts | 300° |
| 2026-04-23 23:56 | 29.88521 | 31.71553 | 39928 ft | 454 kts | 308° |
| 2026-04-23 23:57 | 29.93662 | 31.67157 | 39934 ft | 471 kts | 325° |
| 2026-04-23 23:57 | 29.99981 | 31.64738 | 39929 ft | 489 kts | 342° |
| 2026-04-23 23:58 | 30.05577 | 31.63644 | 39927 ft | 492 kts | 344° |
| 2026-04-23 23:58 | 30.12377 | 31.62499 | 39918 ft | 493 kts | 345° |
| 2026-04-23 23:59 | 30.19158 | 31.61341 | 39917 ft | 492 kts | 344° |
| 2026-04-23 23:59 | 30.25922 | 31.60142 | 39928 ft | 492 kts | 344° |
| 2026-04-24 00:00 | 30.32686 | 31.58923 | 39954 ft | 492 kts | 344° |
| 2026-04-24 00:00 | 30.39446 | 31.57701 | 39933 ft | 492 kts | 344° |
| 2026-04-24 00:01 | 30.46207 | 31.56479 | 39929 ft | 491 kts | 344° |
| 2026-04-24 00:01 | 30.52958 | 31.55258 | 39932 ft | 491 kts | 344° |
| 2026-04-24 00:02 | 30.59671 | 31.54042 | 39935 ft | 491 kts | 344° |
| 2026-04-24 00:02 | 30.66465 | 31.52811 | 39933 ft | 490 kts | 344° |
| 2026-04-24 00:03 | 30.73160 | 31.51596 | 39935 ft | 490 kts | 344° |
| 2026-04-24 00:03 | 30.79888 | 31.50373 | 39935 ft | 489 kts | 344° |
| 2026-04-24 00:04 | 30.86605 | 31.49145 | 39945 ft | 488 kts | 344° |
| 2026-04-24 00:04 | 30.93316 | 31.47918 | 39935 ft | 488 kts | 344° |
| 2026-04-24 00:05 | 31.00021 | 31.46690 | 39936 ft | 488 kts | 344° |
| 2026-04-24 00:05 | 31.06727 | 31.45461 | 39936 ft | 488 kts | 344° |
| 2026-04-24 00:06 | 31.13429 | 31.44230 | 39936 ft | 487 kts | 345° |
| 2026-04-24 00:06 | 31.20130 | 31.42998 | 39936 ft | 487 kts | 345° |
| 2026-04-24 00:07 | 31.26825 | 31.41769 | 39936 ft | 487 kts | 345° |
| 2026-04-24 00:07 | 31.33522 | 31.40534 | 39962 ft | 487 kts | 344° |
| 2026-04-24 00:08 | 31.40213 | 31.39288 | 39936 ft | 487 kts | 344° |
| 2026-04-24 00:08 | 31.46901 | 31.38043 | 39936 ft | 487 kts | 344° |
| 2026-04-24 00:09 | 31.53588 | 31.36798 | 39942 ft | 487 kts | 344° |
| 2026-04-24 00:09 | 31.60265 | 31.35725 | 39954 ft | 490 kts | 348° |
| 2026-04-24 00:10 | 31.67078 | 31.35095 | 39939 ft | 491 kts | 349° |
| 2026-04-24 00:10 | 31.73897 | 31.34501 | 39937 ft | 491 kts | 349° |
| 2026-04-24 00:11 | 31.80708 | 31.33837 | 39939 ft | 491 kts | 348° |
| 2026-04-24 00:11 | 31.87510 | 31.33134 | 39938 ft | 491 kts | 348° |
| 2026-04-24 00:12 | 31.94308 | 31.32418 | 39934 ft | 490 kts | 348° |
| 2026-04-24 00:12 | 32.01102 | 31.31691 | 39934 ft | 490 kts | 348° |
| 2026-04-24 00:13 | 32.07898 | 31.30969 | 39954 ft | 491 kts | 348° |
| 2026-04-24 00:13 | 32.14698 | 31.30245 | 39942 ft | 491 kts | 348° |
| 2026-04-24 00:14 | 32.21506 | 31.29516 | 39937 ft | 491 kts | 348° |
| 2026-04-24 00:14 | 32.28312 | 31.28780 | 39935 ft | 491 kts | 348° |
| 2026-04-24 00:15 | 32.35115 | 31.28043 | 39939 ft | 491 kts | 348° |
| 2026-04-24 00:15 | 32.41923 | 31.27307 | 39938 ft | 491 kts | 348° |
| 2026-04-24 00:16 | 32.48734 | 31.26570 | 39936 ft | 491 kts | 348° |
| 2026-04-24 00:16 | 32.55516 | 31.25696 | 39960 ft | 486 kts | 342° |
| 2026-04-24 00:17 | 32.61760 | 31.23257 | 39942 ft | 473 kts | 329° |
| 2026-04-24 00:17 | 32.67744 | 31.19903 | 39938 ft | 472 kts | 327° |
| 2026-04-24 00:18 | 32.73625 | 31.16426 | 39938 ft | 472 kts | 327° |
| 2026-04-24 00:18 | 32.79497 | 31.12951 | 39938 ft | 472 kts | 327° |
| 2026-04-24 00:19 | 32.85378 | 31.09492 | 39941 ft | 472 kts | 327° |
| 2026-04-24 00:19 | 32.91274 | 31.06031 | 39938 ft | 473 kts | 327° |
| 2026-04-24 00:20 | 32.97178 | 31.02562 | 39938 ft | 473 kts | 327° |
| 2026-04-24 00:20 | 33.03077 | 30.99092 | 39938 ft | 473 kts | 327° |
| 2026-04-24 00:21 | 33.09150 | 30.95978 | 39942 ft | 482 kts | 337° |
| 2026-04-24 00:21 | 33.15868 | 30.94754 | 39940 ft | 495 kts | 350° |
| 2026-04-24 00:22 | 33.22777 | 30.94417 | 39939 ft | 498 kts | 352° |
| 2026-04-24 00:22 | 33.29705 | 30.94216 | 39938 ft | 498 kts | 352° |
| 2026-04-24 00:23 | 33.36630 | 30.93996 | 39936 ft | 497 kts | 352° |
| 2026-04-24 00:23 | 33.43545 | 30.93746 | 39943 ft | 497 kts | 352° |
| 2026-04-24 00:24 | 33.50459 | 30.93483 | 39934 ft | 497 kts | 352° |
| 2026-04-24 00:24 | 33.57368 | 30.93219 | 39948 ft | 497 kts | 352° |
| 2026-04-24 00:25 | 33.64275 | 30.92958 | 39940 ft | 496 kts | 352° |
| 2026-04-24 00:25 | 33.71172 | 30.92697 | 39939 ft | 496 kts | 352° |
| 2026-04-24 00:26 | 33.78067 | 30.92435 | 39936 ft | 496 kts | 352° |
| 2026-04-24 00:26 | 33.84967 | 30.92171 | 39934 ft | 496 kts | 352° |
| 2026-04-24 00:27 | 33.91870 | 30.91908 | 39933 ft | 496 kts | 352° |
| 2026-04-24 00:27 | 33.98768 | 30.91630 | 39934 ft | 496 kts | 351° |
| 2026-04-24 00:28 | 34.05610 | 30.91246 | 39932 ft | 495 kts | 351° |
| 2026-04-24 00:28 | 34.12498 | 30.90836 | 39930 ft | 496 kts | 351° |
| 2026-04-24 00:29 | 34.19386 | 30.90441 | 39927 ft | 496 kts | 351° |
| 2026-04-24 00:29 | 34.26268 | 30.90061 | 39927 ft | 496 kts | 352° |
| 2026-04-24 00:30 | 34.33165 | 30.89721 | 39927 ft | 496 kts | 352° |
| 2026-04-24 00:30 | 34.40065 | 30.89392 | 39927 ft | 496 kts | 352° |
| 2026-04-24 00:31 | 34.46962 | 30.89058 | 39945 ft | 496 kts | 352° |
| 2026-04-24 00:31 | 34.53842 | 30.88721 | 39923 ft | 494 kts | 352° |
| 2026-04-24 00:32 | 34.60707 | 30.88383 | 39926 ft | 494 kts | 352° |
| 2026-04-24 00:32 | 34.67576 | 30.88094 | 39918 ft | 494 kts | 352° |
| 2026-04-24 00:33 | 34.74449 | 30.87887 | 39922 ft | 493 kts | 352° |
| 2026-04-24 00:33 | 34.81304 | 30.87682 | 39918 ft | 492 kts | 352° |
| 2026-04-24 00:34 | 34.88153 | 30.87461 | 39920 ft | 492 kts | 352° |
| 2026-04-24 00:34 | 34.95000 | 30.87234 | 39928 ft | 492 kts | 352° |
| 2026-04-24 00:35 | 35.01843 | 30.87006 | 39914 ft | 492 kts | 352° |
| 2026-04-24 00:35 | 35.08682 | 30.86777 | 39916 ft | 492 kts | 352° |
| 2026-04-24 00:36 | 35.15521 | 30.86549 | 39922 ft | 492 kts | 352° |
| 2026-04-24 00:36 | 35.22355 | 30.86324 | 39916 ft | 491 kts | 352° |
| 2026-04-24 00:37 | 35.29197 | 30.86094 | 39915 ft | 491 kts | 352° |
| 2026-04-24 00:37 | 35.36028 | 30.85864 | 39914 ft | 491 kts | 352° |
| 2026-04-24 00:38 | 35.42860 | 30.85635 | 39912 ft | 491 kts | 352° |
| 2026-04-24 00:38 | 35.49684 | 30.85405 | 39910 ft | 491 kts | 352° |
| 2026-04-24 00:39 | 35.56465 | 30.85177 | 39909 ft | 491 kts | 352° |
| 2026-04-24 00:39 | 35.63287 | 30.84946 | 39908 ft | 490 kts | 352° |
| 2026-04-24 00:40 | 35.70091 | 30.84572 | 39904 ft | 488 kts | 351° |
| 2026-04-24 00:40 | 35.76876 | 30.84118 | 39904 ft | 488 kts | 351° |
| 2026-04-24 00:41 | 35.83665 | 30.83682 | 39912 ft | 488 kts | 351° |
| 2026-04-24 00:41 | 35.90443 | 30.83268 | 39908 ft | 488 kts | 351° |
| 2026-04-24 00:42 | 35.97222 | 30.82859 | 39898 ft | 488 kts | 351° |
| 2026-04-24 00:42 | 36.04001 | 30.82450 | 39899 ft | 488 kts | 350° |
| 2026-04-24 00:43 | 36.10795 | 30.82150 | 39899 ft | 489 kts | 352° |
| 2026-04-24 00:43 | 36.17599 | 30.81961 | 39897 ft | 489 kts | 352° |
| 2026-04-24 00:44 | 36.24396 | 30.81764 | 39921 ft | 489 kts | 352° |
| 2026-04-24 00:44 | 36.31205 | 30.81545 | 39894 ft | 489 kts | 352° |
| 2026-04-24 00:45 | 36.38012 | 30.81316 | 39894 ft | 489 kts | 352° |
| 2026-04-24 00:45 | 36.43674 | 30.81128 | 39895 ft | 489 kts | 352° |
| 2026-04-24 00:46 | 36.50478 | 30.80896 | 39895 ft | 489 kts | 351° |
| 2026-04-24 00:46 | 36.57285 | 30.80657 | 39896 ft | 489 kts | 351° |
| 2026-04-24 00:47 | 36.64097 | 30.80419 | 39901 ft | 489 kts | 351° |
| 2026-04-24 00:47 | 36.70907 | 30.80183 | 39902 ft | 490 kts | 351° |
| 2026-04-24 00:48 | 36.77732 | 30.79946 | 39911 ft | 491 kts | 351° |
| 2026-04-24 00:48 | 36.84555 | 30.79710 | 39909 ft | 491 kts | 351° |
| 2026-04-24 00:49 | 36.91388 | 30.79472 | 39916 ft | 491 kts | 351° |
| 2026-04-24 00:49 | 36.98192 | 30.78956 | 39911 ft | 488 kts | 347° |
| 2026-04-24 00:50 | 37.04940 | 30.77996 | 39910 ft | 488 kts | 346° |
| 2026-04-24 00:50 | 37.11682 | 30.77043 | 39917 ft | 488 kts | 347° |
| 2026-04-24 00:51 | 37.18453 | 30.76162 | 39912 ft | 490 kts | 347° |
| 2026-04-24 00:51 | 37.25240 | 30.75316 | 39911 ft | 491 kts | 347° |
| 2026-04-24 00:52 | 37.32037 | 30.74473 | 39933 ft | 491 kts | 347° |
| 2026-04-24 00:52 | 37.38825 | 30.73623 | 39926 ft | 490 kts | 347° |
| 2026-04-24 00:53 | 37.45569 | 30.72752 | 39929 ft | 490 kts | 347° |
| 2026-04-24 00:53 | 37.52332 | 30.71755 | 39929 ft | 489 kts | 346° |
| 2026-04-24 00:54 | 37.59105 | 30.70737 | 39934 ft | 491 kts | 346° |
| 2026-04-24 00:54 | 37.65908 | 30.69843 | 39945 ft | 492 kts | 348° |
| 2026-04-24 00:55 | 37.72728 | 30.69031 | 39953 ft | 492 kts | 348° |
| 2026-04-24 00:55 | 37.79540 | 30.68209 | 39956 ft | 492 kts | 348° |
| 2026-04-24 00:56 | 37.86348 | 30.67370 | 39964 ft | 492 kts | 348° |
| 2026-04-24 00:56 | 37.93155 | 30.66494 | 39965 ft | 491 kts | 347° |
| 2026-04-24 00:57 | 37.99932 | 30.65495 | 39959 ft | 491 kts | 347° |
| 2026-04-24 00:58 | 38.10136 | 30.64116 | 39969 ft | 492 kts | 348° |
| 2026-04-24 00:58 | 38.16949 | 30.63235 | 39985 ft | 492 kts | 348° |
| 2026-04-24 00:59 | 38.23755 | 30.62347 | 39983 ft | 492 kts | 348° |
| 2026-04-24 00:59 | 38.30607 | 30.61783 | 39994 ft | 495 kts | 353° |
| 2026-04-24 01:00 | 38.37498 | 30.61646 | 40022 ft | 496 kts | 354° |
| 2026-04-24 01:00 | 38.44410 | 30.61577 | 40004 ft | 496 kts | 354° |
| 2026-04-24 01:01 | 38.51322 | 30.61512 | 40014 ft | 497 kts | 354° |
| 2026-04-24 01:01 | 38.58228 | 30.61439 | 40021 ft | 496 kts | 354° |
| 2026-04-24 01:02 | 38.65136 | 30.61361 | 40026 ft | 496 kts | 354° |
| 2026-04-24 01:02 | 38.71934 | 30.60477 | 40028 ft | 485 kts | 340° |
| 2026-04-24 01:03 | 38.78129 | 30.57389 | 40039 ft | 476 kts | 329° |
| 2026-04-24 01:03 | 38.84045 | 30.53588 | 40032 ft | 475 kts | 328° |
| 2026-04-24 01:04 | 38.89918 | 30.49673 | 40049 ft | 475 kts | 327° |
| 2026-04-24 01:04 | 38.95755 | 30.45796 | 40050 ft | 476 kts | 328° |
| 2026-04-24 01:05 | 39.01641 | 30.41910 | 40053 ft | 476 kts | 328° |
| 2026-04-24 01:05 | 39.07535 | 30.38019 | 40058 ft | 477 kts | 328° |
| 2026-04-24 01:06 | 39.13451 | 30.34109 | 40056 ft | 478 kts | 328° |
| 2026-04-24 01:06 | 39.19369 | 30.30190 | 40059 ft | 479 kts | 328° |
| 2026-04-24 01:07 | 39.25289 | 30.26262 | 40062 ft | 479 kts | 328° |
| 2026-04-24 01:07 | 39.31211 | 30.22324 | 40066 ft | 478 kts | 328° |
| 2026-04-24 01:08 | 39.37127 | 30.18382 | 40061 ft | 479 kts | 328° |
| 2026-04-24 01:08 | 39.43044 | 30.14432 | 40061 ft | 479 kts | 328° |
| 2026-04-24 01:09 | 39.48994 | 30.10546 | 40062 ft | 480 kts | 331° |
| 2026-04-24 01:09 | 39.55150 | 30.07146 | 39975 ft | 478 kts | 334° |
| 2026-04-24 01:09 | 39.58220 | 30.05520 | 39354 ft | 478 kts | 334° |
| 2026-04-24 01:10 | 39.61309 | 30.03865 | 38524 ft | 481 kts | 334° |
| 2026-04-24 01:10 | 39.64405 | 30.02180 | 37621 ft | 483 kts | 333° |
| 2026-04-24 01:10 | 39.67506 | 30.00470 | 36724 ft | 485 kts | 333° |
| 2026-04-24 01:10 | 39.70600 | 29.98747 | 35884 ft | 484 kts | 333° |
| 2026-04-24 01:11 | 39.73671 | 29.97033 | 34627 ft | 479 kts | 333° |
| 2026-04-24 01:11 | 39.76728 | 29.95318 | 33113 ft | 479 kts | 334° |
| 2026-04-24 01:11 | 39.79816 | 29.93585 | 32350 ft | 485 kts | 334° |
| 2026-04-24 01:11 | 39.82908 | 29.91840 | 32065 ft | 487 kts | 334° |
| 2026-04-24 01:12 | 39.86019 | 29.90086 | 31807 ft | 485 kts | 334° |
| 2026-04-24 01:12 | 39.89120 | 29.88355 | 31551 ft | 483 kts | 335° |
| 2026-04-24 01:12 | 39.92312 | 29.86969 | 31307 ft | 484 kts | 343° |
| 2026-04-24 01:12 | 39.95618 | 29.86116 | 31046 ft | 484 kts | 348° |
| 2026-04-24 01:13 | 39.98886 | 29.85416 | 30813 ft | 482 kts | 349° |
| 2026-04-24 01:13 | 40.02196 | 29.84720 | 30558 ft | 480 kts | 349° |
| 2026-04-24 01:13 | 40.05479 | 29.84027 | 30322 ft | 477 kts | 349° |
| 2026-04-24 01:13 | 40.08751 | 29.83334 | 30063 ft | 475 kts | 349° |
| 2026-04-24 01:14 | 40.12013 | 29.82641 | 29777 ft | 473 kts | 351° |
| 2026-04-24 01:14 | 40.15252 | 29.81952 | 29483 ft | 469 kts | 351° |
| 2026-04-24 01:14 | 40.18458 | 29.81269 | 29192 ft | 466 kts | 351° |
| 2026-04-24 01:14 | 40.21634 | 29.80591 | 28994 ft | 456 kts | 351° |
| 2026-04-24 01:15 | 40.24710 | 29.79936 | 28859 ft | 441 kts | 352° |
| 2026-04-24 01:15 | 40.27650 | 29.79309 | 28739 ft | 426 kts | 351° |
| 2026-04-24 01:15 | 40.30532 | 29.78690 | 28618 ft | 413 kts | 351° |
| 2026-04-24 01:15 | 40.33361 | 29.78309 | 28384 ft | 407 kts | 360° |
| 2026-04-24 01:16 | 40.36144 | 29.78645 | 28032 ft | 399 kts | 12° |
| 2026-04-24 01:16 | 40.38758 | 29.79779 | 27677 ft | 397 kts | 25° |
| 2026-04-24 01:16 | 40.41163 | 29.81612 | 27357 ft | 402 kts | 34° |
| 2026-04-24 01:16 | 40.43461 | 29.83711 | 27009 ft | 403 kts | 34° |
| 2026-04-24 01:17 | 40.45752 | 29.85833 | 26669 ft | 403 kts | 34° |
| 2026-04-24 01:17 | 40.48146 | 29.87622 | 26330 ft | 401 kts | 23° |
| 2026-04-24 01:17 | 40.50804 | 29.88650 | 25988 ft | 398 kts | 9° |
| 2026-04-24 01:17 | 40.53552 | 29.88783 | 25660 ft | 396 kts | 356° |
| 2026-04-24 01:18 | 40.56295 | 29.88419 | 25314 ft | 395 kts | 354° |
| 2026-04-24 01:18 | 40.59016 | 29.87982 | 24970 ft | 393 kts | 354° |
| 2026-04-24 01:18 | 40.61716 | 29.87503 | 24637 ft | 391 kts | 351° |
| 2026-04-24 01:18 | 40.64321 | 29.86487 | 24301 ft | 391 kts | 339° |
| 2026-04-24 01:19 | 40.66814 | 29.85078 | 23961 ft | 390 kts | 337° |
| 2026-04-24 01:19 | 40.69284 | 29.83620 | 23642 ft | 388 kts | 337° |
| 2026-04-24 01:19 | 40.71743 | 29.82170 | 23255 ft | 387 kts | 338° |
| 2026-04-24 01:19 | 40.74196 | 29.80728 | 22911 ft | 385 kts | 338° |
| 2026-04-24 01:20 | 40.76630 | 29.79300 | 22590 ft | 383 kts | 338° |
| 2026-04-24 01:20 | 40.79069 | 29.77868 | 22259 ft | 382 kts | 337° |
| 2026-04-24 01:20 | 40.81394 | 29.76196 | 21919 ft | 382 kts | 326° |
| 2026-04-24 01:20 | 40.83295 | 29.73760 | 21589 ft | 382 kts | 309° |
| 2026-04-24 01:21 | 40.84829 | 29.70893 | 21261 ft | 382 kts | 305° |
| 2026-04-24 01:21 | 40.86297 | 29.67975 | 20937 ft | 380 kts | 305° |
| 2026-04-24 01:21 | 40.87757 | 29.65072 | 20614 ft | 379 kts | 305° |
| 2026-04-24 01:21 | 40.89197 | 29.62216 | 20416 ft | 368 kts | 305° |
| 2026-04-24 01:22 | 40.90594 | 29.59451 | 20235 ft | 356 kts | 305° |
| 2026-04-24 01:22 | 40.91953 | 29.56764 | 20018 ft | 347 kts | 305° |
| 2026-04-24 01:22 | 40.93282 | 29.54136 | 19663 ft | 342 kts | 304° |
| 2026-04-24 01:22 | 40.94388 | 29.51385 | 19337 ft | 337 kts | 290° |
| 2026-04-24 01:23 | 40.94770 | 29.48359 | 18959 ft | 335 kts | 271° |
| 2026-04-24 01:23 | 40.94703 | 29.45287 | 18556 ft | 333 kts | 268° |
| 2026-04-24 01:23 | 40.94577 | 29.42278 | 18255 ft | 330 kts | 268° |
| 2026-04-24 01:23 | 40.94456 | 29.39262 | 17928 ft | 328 kts | 268° |
| 2026-04-24 01:24 | 40.94341 | 29.36268 | 17639 ft | 326 kts | 268° |
| 2026-04-24 01:24 | 40.94231 | 29.33283 | 17358 ft | 323 kts | 268° |
| 2026-04-24 01:24 | 40.94123 | 29.30320 | 17103 ft | 321 kts | 268° |
| 2026-04-24 01:24 | 40.94016 | 29.27375 | 16831 ft | 319 kts | 268° |
| 2026-04-24 01:25 | 40.93910 | 29.24458 | 16549 ft | 317 kts | 268° |
| 2026-04-24 01:25 | 40.93992 | 29.21559 | 16280 ft | 314 kts | 282° |
| 2026-04-24 01:25 | 40.94759 | 29.18901 | 16029 ft | 309 kts | 303° |
| 2026-04-24 01:25 | 40.96215 | 29.16858 | 15761 ft | 306 kts | 325° |
| 2026-04-24 01:26 | 40.98115 | 29.15630 | 15493 ft | 305 kts | 341° |
| 2026-04-24 01:26 | 41.00137 | 29.14784 | 15232 ft | 304 kts | 342° |
| 2026-04-24 01:26 | 41.02162 | 29.13983 | 14983 ft | 303 kts | 342° |
| 2026-04-24 01:26 | 41.04175 | 29.13176 | 14716 ft | 301 kts | 342° |
| 2026-04-24 01:27 | 41.06206 | 29.12552 | 14453 ft | 301 kts | 353° |
| 2026-04-24 01:27 | 41.08289 | 29.12783 | 14201 ft | 302 kts | 14° |
| 2026-04-24 01:27 | 41.10273 | 29.13689 | 13947 ft | 302 kts | 19° |
| 2026-04-24 01:27 | 41.12231 | 29.14707 | 13653 ft | 302 kts | 19° |
| 2026-04-24 01:28 | 41.14179 | 29.15721 | 13394 ft | 300 kts | 19° |
| 2026-04-24 01:28 | 41.16118 | 29.16720 | 13132 ft | 298 kts | 19° |
| 2026-04-24 01:28 | 41.18046 | 29.17709 | 12883 ft | 296 kts | 19° |
| 2026-04-24 01:28 | 41.19964 | 29.18694 | 12626 ft | 295 kts | 19° |
| 2026-04-24 01:29 | 41.21874 | 29.19669 | 12371 ft | 293 kts | 19° |
| 2026-04-24 01:29 | 41.23775 | 29.20638 | 12124 ft | 292 kts | 19° |
| 2026-04-24 01:29 | 41.25661 | 29.21601 | 11916 ft | 287 kts | 19° |
| 2026-04-24 01:29 | 41.27481 | 29.22532 | 11746 ft | 276 kts | 19° |
| 2026-04-24 01:30 | 41.29248 | 29.23440 | 11518 ft | 268 kts | 20° |
| 2026-04-24 01:30 | 41.30877 | 29.24603 | 11284 ft | 266 kts | 35° |
| 2026-04-24 01:30 | 41.32264 | 29.26223 | 11055 ft | 266 kts | 41° |
| 2026-04-24 01:30 | 41.33588 | 29.27935 | 11000 ft | 266 kts | 42° |
| 2026-04-24 01:31 | 41.34909 | 29.29653 | 10994 ft | 265 kts | 42° |
| 2026-04-24 01:31 | 41.36232 | 29.31365 | 10994 ft | 265 kts | 42° |
| 2026-04-24 01:31 | 41.37638 | 29.32881 | 10996 ft | 263 kts | 30° |
| 2026-04-24 01:31 | 41.39227 | 29.34130 | 10994 ft | 262 kts | 27° |
| 2026-04-24 01:32 | 41.40824 | 29.35303 | 10991 ft | 262 kts | 27° |
| 2026-04-24 01:32 | 41.42399 | 29.36459 | 10991 ft | 262 kts | 27° |
| 2026-04-24 01:32 | 41.43999 | 29.37636 | 10991 ft | 262 kts | 27° |
| 2026-04-24 01:32 | 41.45657 | 29.38617 | 10999 ft | 260 kts | 15° |
| 2026-04-24 01:33 | 41.47391 | 29.39260 | 10994 ft | 258 kts | 12° |
| 2026-04-24 01:33 | 41.49137 | 29.39838 | 10996 ft | 259 kts | 11° |
| 2026-04-24 01:33 | 41.50881 | 29.40412 | 10995 ft | 258 kts | 11° |
| 2026-04-24 01:33 | 41.52621 | 29.40990 | 10987 ft | 257 kts | 12° |
| 2026-04-24 01:34 | 41.54381 | 29.41396 | 10992 ft | 256 kts | 1° |
| 2026-04-24 01:34 | 41.56163 | 29.41432 | 10992 ft | 257 kts | 357° |
| 2026-04-24 01:34 | 41.57944 | 29.41390 | 10990 ft | 256 kts | 357° |
| 2026-04-24 01:34 | 41.59711 | 29.41232 | 10985 ft | 253 kts | 348° |
| 2026-04-24 01:35 | 41.61328 | 29.40373 | 10989 ft | 250 kts | 325° |
| 2026-04-24 01:35 | 41.62513 | 29.38687 | 10989 ft | 253 kts | 301° |
| 2026-04-24 01:35 | 41.63045 | 29.36443 | 10987 ft | 257 kts | 277° |
| 2026-04-24 01:35 | 41.62791 | 29.34080 | 10991 ft | 261 kts | 252° |
| 2026-04-24 01:36 | 41.62193 | 29.31789 | 10983 ft | 260 kts | 259° |
| 2026-04-24 01:36 | 41.61838 | 29.29421 | 10987 ft | 260 kts | 263° |
| 2026-04-24 01:36 | 41.61556 | 29.27031 | 10892 ft | 259 kts | 264° |
| 2026-04-24 01:36 | 41.61290 | 29.24650 | 10817 ft | 260 kts | 264° |
| 2026-04-24 01:37 | 41.61115 | 29.23061 | 10750 ft | 261 kts | 264° |
| 2026-04-24 01:37 | 41.60846 | 29.20671 | 10647 ft | 259 kts | 264° |
| 2026-04-24 01:37 | 41.60578 | 29.18294 | 10558 ft | 258 kts | 264° |
| 2026-04-24 01:37 | 41.60312 | 29.15920 | 10468 ft | 259 kts | 265° |
| 2026-04-24 01:38 | 41.60045 | 29.13549 | 10365 ft | 257 kts | 265° |
| 2026-04-24 01:38 | 41.59780 | 29.11190 | 10280 ft | 257 kts | 265° |
| 2026-04-24 01:38 | 41.59519 | 29.08826 | 10181 ft | 258 kts | 264° |
| 2026-04-24 01:38 | 41.59249 | 29.06452 | 10096 ft | 257 kts | 265° |
| 2026-04-24 01:39 | 41.58981 | 29.04088 | 10006 ft | 257 kts | 264° |
| 2026-04-24 01:39 | 41.58713 | 29.01720 | 9902 ft | 258 kts | 264° |
| 2026-04-24 01:39 | 41.58443 | 28.99354 | 9812 ft | 258 kts | 264° |
| 2026-04-24 01:39 | 41.58217 | 28.96989 | 9716 ft | 255 kts | 269° |
| 2026-04-24 01:40 | 41.58475 | 28.94680 | 9629 ft | 250 kts | 294° |
| 2026-04-24 01:40 | 41.59388 | 28.92727 | 9539 ft | 245 kts | 309° |
| 2026-04-24 01:40 | 41.60445 | 28.91012 | 9246 ft | 237 kts | 311° |
| 2026-04-24 01:40 | 41.61493 | 28.89350 | 8877 ft | 232 kts | 311° |
| 2026-04-24 01:41 | 41.62538 | 28.87683 | 8571 ft | 235 kts | 310° |
| 2026-04-24 01:41 | 41.63583 | 28.86000 | 8285 ft | 234 kts | 310° |
| 2026-04-24 01:41 | 41.64467 | 28.84185 | 8003 ft | 234 kts | 297° |
| 2026-04-24 01:41 | 41.65085 | 28.82178 | 7724 ft | 234 kts | 292° |
| 2026-04-24 01:42 | 41.65618 | 28.80113 | 7445 ft | 236 kts | 287° |
| 2026-04-24 01:42 | 41.65708 | 28.77940 | 7154 ft | 237 kts | 263° |
| 2026-04-24 01:42 | 41.65045 | 28.75917 | 6854 ft | 243 kts | 236° |
| 2026-04-24 01:42 | 41.63711 | 28.74514 | 6562 ft | 249 kts | 208° |
| 2026-04-24 01:43 | 41.62105 | 28.73637 | 6261 ft | 249 kts | 202° |
| 2026-04-24 01:43 | 41.60486 | 28.72850 | 6009 ft | 241 kts | 202° |
| 2026-04-24 01:43 | 41.58939 | 28.72260 | 5938 ft | 223 kts | 193° |
| 2026-04-24 01:43 | 41.57442 | 28.72065 | 5787 ft | 216 kts | 182° |
| 2026-04-24 01:44 | 41.55952 | 28.72084 | 5555 ft | 213 kts | 180° |
| 2026-04-24 01:44 | 41.54470 | 28.72124 | 5257 ft | 213 kts | 181° |
| 2026-04-24 01:44 | 41.52985 | 28.72156 | 4959 ft | 213 kts | 181° |
| 2026-04-24 01:44 | 41.51520 | 28.72190 | 4662 ft | 209 kts | 181° |
| 2026-04-24 01:45 | 41.50067 | 28.72224 | 4331 ft | 208 kts | 181° |
| 2026-04-24 01:45 | 41.48633 | 28.72257 | 4031 ft | 205 kts | 182° |
| 2026-04-24 01:45 | 41.47231 | 28.72290 | 3749 ft | 199 kts | 182° |
| 2026-04-24 01:45 | 41.45858 | 28.72322 | 3486 ft | 193 kts | 182° |
| 2026-04-24 01:46 | 41.44556 | 28.72354 | 3237 ft | 180 kts | 182° |
| 2026-04-24 01:46 | 41.43348 | 28.72383 | 2984 ft | 167 kts | 183° |
| 2026-04-24 01:46 | 41.42229 | 28.72409 | 2780 ft | 155 kts | 184° |
| 2026-04-24 01:46 | 41.41192 | 28.72434 | 2561 ft | 143 kts | 185° |
| 2026-04-24 01:47 | 41.40256 | 28.72456 | 2388 ft | 134 kts | 186° |
| 2026-04-24 01:47 | 41.39359 | 28.72475 | 2217 ft | 132 kts | 186° |
| 2026-04-24 01:47 | 41.38856 | 28.72486 | 2113 ft | 132 kts | 186° |
| 2026-04-24 01:47 | 41.37939 | 28.72507 | 1923 ft | 132 kts | 187° |
| 2026-04-24 01:48 | 41.37023 | 28.72527 | 1751 ft | 131 kts | 187° |
| 2026-04-24 01:48 | 41.36111 | 28.72548 | 1574 ft | 131 kts | 186° |
| 2026-04-24 01:48 | 41.35209 | 28.72568 | 1389 ft | 129 kts | 185° |
| 2026-04-24 01:48 | 41.34305 | 28.72590 | 1214 ft | 130 kts | 185° |
| 2026-04-24 01:49 | 41.33406 | 28.72610 | 1038 ft | 129 kts | 184° |
| 2026-04-24 01:49 | 41.32511 | 28.72631 | 867 ft | 128 kts | 182° |
| 2026-04-24 01:49 | 41.31626 | 28.72652 | 694 ft | 128 kts | 182° |
| 2026-04-24 01:49 | 41.30739 | 28.72674 | 532 ft | 126 kts | 181° |
| 2026-04-24 01:50 | 41.29793 | 28.72697 | 391 ft | 143 kts | 181° |
| 2026-04-24 01:50 | 41.28849 | 28.72722 | 369 ft | 123 kts | 182° |
| 2026-04-24 01:50 | 41.27842 | 28.72735 | 625 ft | 172 kts | 182° |
| 2026-04-24 01:50 | 41.26474 | 28.72764 | 1139 ft | 219 kts | 181° |
| 2026-04-24 01:51 | 41.24894 | 28.72807 | 2222 ft | 234 kts | 183° |
| 2026-04-24 01:51 | 41.23183 | 28.72830 | 3160 ft | 259 kts | 181° |
| 2026-04-24 01:51 | 41.21387 | 28.72859 | 3722 ft | 253 kts | 181° |
| 2026-04-24 01:51 | 41.19661 | 28.72898 | 3978 ft | 245 kts | 180° |
| 2026-04-24 01:52 | 41.17961 | 28.72935 | 4002 ft | 245 kts | 180° |
| 2026-04-24 01:52 | 41.16249 | 28.73008 | 3995 ft | 252 kts | 175° |
| 2026-04-24 01:52 | 41.14506 | 28.73648 | 3988 ft | 267 kts | 154° |
| 2026-04-24 01:52 | 41.13134 | 28.75341 | 4212 ft | 281 kts | 119° |
| 2026-04-24 01:53 | 41.12667 | 28.77826 | 4758 ft | 276 kts | 86° |
| 2026-04-24 01:53 | 41.13225 | 28.80169 | 4969 ft | 265 kts | 53° |
| 2026-04-24 01:53 | 41.14611 | 28.81684 | 5012 ft | 260 kts | 20° |
| 2026-04-24 01:53 | 41.16333 | 28.82390 | 4987 ft | 260 kts | 14° |
| 2026-04-24 01:54 | 41.18080 | 28.83067 | 4983 ft | 262 kts | 15° |
| 2026-04-24 01:54 | 41.19832 | 28.83710 | 4999 ft | 261 kts | 13° |
| 2026-04-24 01:54 | 41.21595 | 28.84302 | 5005 ft | 261 kts | 12° |
| 2026-04-24 01:54 | 41.23358 | 28.84862 | 4990 ft | 260 kts | 12° |
| 2026-04-24 01:55 | 41.25116 | 28.85401 | 4998 ft | 259 kts | 11° |
| 2026-04-24 01:55 | 41.26878 | 28.85930 | 4994 ft | 260 kts | 11° |
| 2026-04-24 01:55 | 41.28644 | 28.86456 | 4986 ft | 259 kts | 11° |
| 2026-04-24 01:55 | 41.30402 | 28.86977 | 4993 ft | 260 kts | 11° |
| 2026-04-24 01:56 | 41.32167 | 28.87498 | 4991 ft | 259 kts | 11° |
| 2026-04-24 01:56 | 41.33929 | 28.88017 | 4988 ft | 260 kts | 11° |
| 2026-04-24 01:56 | 41.35690 | 28.88536 | 4992 ft | 259 kts | 11° |
| 2026-04-24 01:56 | 41.37457 | 28.89057 | 4990 ft | 259 kts | 11° |
| 2026-04-24 01:57 | 41.39214 | 28.89575 | 4992 ft | 259 kts | 11° |
| 2026-04-24 01:57 | 41.40978 | 28.90097 | 5000 ft | 259 kts | 10° |
| 2026-04-24 01:57 | 41.42736 | 28.90615 | 5001 ft | 259 kts | 11° |
| 2026-04-24 01:57 | 41.44493 | 28.91134 | 4998 ft | 258 kts | 10° |
| 2026-04-24 01:58 | 41.46246 | 28.91652 | 4999 ft | 258 kts | 10° |
| 2026-04-24 01:58 | 41.47996 | 28.92168 | 5002 ft | 258 kts | 10° |
| 2026-04-24 01:58 | 41.49753 | 28.92688 | 5004 ft | 258 kts | 10° |
| 2026-04-24 01:58 | 41.51481 | 28.93199 | 4996 ft | 258 kts | 10° |
| 2026-04-24 01:59 | 41.53230 | 28.93717 | 4997 ft | 257 kts | 10° |
| 2026-04-24 01:59 | 41.54976 | 28.94230 | 5008 ft | 257 kts | 10° |
| 2026-04-24 01:59 | 41.56739 | 28.94446 | 4999 ft | 255 kts | 355° |
| 2026-04-24 01:59 | 41.58420 | 28.93809 | 4996 ft | 251 kts | 330° |
| 2026-04-24 02:00 | 41.59739 | 28.92300 | 4996 ft | 251 kts | 312° |
| 2026-04-24 02:00 | 41.60856 | 28.90517 | 4997 ft | 249 kts | 310° |
| 2026-04-24 02:00 | 41.61948 | 28.88719 | 4997 ft | 250 kts | 310° |
| 2026-04-24 02:00 | 41.63047 | 28.86918 | 4995 ft | 250 kts | 310° |
| 2026-04-24 02:01 | 41.64110 | 28.85074 | 4996 ft | 251 kts | 304° |
| 2026-04-24 02:01 | 41.64874 | 28.82966 | 4994 ft | 252 kts | 293° |
| 2026-04-24 02:01 | 41.65482 | 28.80765 | 5000 ft | 253 kts | 291° |
| 2026-04-24 02:01 | 41.65763 | 28.78438 | 4992 ft | 258 kts | 269° |
| 2026-04-24 02:02 | 41.65189 | 28.76153 | 4991 ft | 266 kts | 238° |
| 2026-04-24 02:02 | 41.63776 | 28.74547 | 5014 ft | 273 kts | 210° |
| 2026-04-24 02:02 | 41.62010 | 28.73571 | 4985 ft | 276 kts | 202° |
| 2026-04-24 02:02 | 41.60198 | 28.72700 | 5005 ft | 278 kts | 201° |
| 2026-04-24 02:03 | 41.56362 | 28.72009 | 5002 ft | 281 kts | 180° |
| 2026-04-24 02:03 | 41.54409 | 28.72090 | 4997 ft | 281 kts | 180° |
| 2026-04-24 02:03 | 41.52457 | 28.72161 | 4894 ft | 277 kts | 179° |
| 2026-04-24 02:04 | 41.50559 | 28.72220 | 4588 ft | 270 kts | 180° |
| 2026-04-24 02:04 | 41.48683 | 28.72258 | 4174 ft | 269 kts | 181° |
| 2026-04-24 02:04 | 41.46816 | 28.72298 | 3731 ft | 268 kts | 181° |
| 2026-04-24 02:04 | 41.45009 | 28.72344 | 3353 ft | 250 kts | 181° |
| 2026-04-24 02:05 | 41.43361 | 28.72385 | 3031 ft | 221 kts | 182° |
| 2026-04-24 02:05 | 41.41919 | 28.72419 | 2728 ft | 195 kts | 183° |
| 2026-04-24 02:05 | 41.40642 | 28.72449 | 2465 ft | 173 kts | 184° |
| 2026-04-24 02:05 | 41.39500 | 28.72475 | 2243 ft | 157 kts | 185° |
| 2026-04-24 02:06 | 41.38454 | 28.72499 | 2031 ft | 145 kts | 186° |
| 2026-04-24 02:06 | 41.37482 | 28.72521 | 1842 ft | 134 kts | 187° |
| 2026-04-24 02:06 | 41.36571 | 28.72541 | 1679 ft | 129 kts | 187° |
| 2026-04-24 02:06 | 41.35673 | 28.72559 | 1474 ft | 129 kts | 186° |
| 2026-04-24 02:07 | 41.34778 | 28.72579 | 1308 ft | 128 kts | 184° |
| 2026-04-24 02:07 | 41.33897 | 28.72599 | 1137 ft | 128 kts | 185° |
| 2026-04-24 02:07 | 41.33007 | 28.72620 | 957 ft | 127 kts | 183° |
| 2026-04-24 02:07 | 41.32111 | 28.72640 | 787 ft | 127 kts | 182° |
| 2026-04-24 02:08 | 41.31241 | 28.72662 | 629 ft | 129 kts | 181° |
| 2026-04-24 02:08 | 41.30362 | 28.72684 | 452 ft | 124 kts | 182° |
| 2026-04-24 02:08 | 41.29459 | 28.72700 | 672 ft | 152 kts | 182° |
| 2026-04-24 02:08 | 41.28264 | 28.72717 | 1439 ft | 184 kts | 184° |
| 2026-04-24 02:09 | 41.26902 | 28.72740 | 2608 ft | 211 kts | 183° |
| 2026-04-24 02:09 | 41.25243 | 28.72761 | 3394 ft | 262 kts | 181° |
| 2026-04-24 02:09 | 41.23243 | 28.72807 | 3803 ft | 303 kts | 180° |
| 2026-04-24 02:09 | 41.21206 | 28.72865 | 3985 ft | 280 kts | 180° |
| 2026-04-24 02:10 | 41.19332 | 28.72910 | 4008 ft | 259 kts | 180° |
| 2026-04-24 02:10 | 41.17603 | 28.72947 | 4003 ft | 247 kts | 180° |
| 2026-04-24 02:10 | 41.15893 | 28.72979 | 3999 ft | 246 kts | 181° |
| 2026-04-24 02:10 | 41.14209 | 28.72723 | 3990 ft | 244 kts | 200° |
| 2026-04-24 02:11 | 41.12814 | 28.71517 | 4001 ft | 239 kts | 231° |
| 2026-04-24 02:11 | 41.12087 | 28.69577 | 4004 ft | 236 kts | 258° |
| 2026-04-24 02:11 | 41.11688 | 28.67480 | 4108 ft | 235 kts | 250° |
| 2026-04-24 02:11 | 41.11343 | 28.65300 | 4336 ft | 253 kts | 275° |
| 2026-04-24 02:12 | 41.11876 | 28.63047 | 4811 ft | 260 kts | 303° |
| 2026-04-24 02:12 | 41.13184 | 28.61467 | 4975 ft | 256 kts | 335° |
| 2026-04-24 02:12 | 41.14923 | 28.61085 | 5002 ft | 258 kts | 7° |
| 2026-04-24 02:12 | 41.16583 | 28.61972 | 4975 ft | 261 kts | 33° |
| 2026-04-24 02:13 | 41.17824 | 28.63740 | 5000 ft | 264 kts | 51° |
| 2026-04-24 02:13 | 41.18938 | 28.65684 | 4994 ft | 265 kts | 50° |
| 2026-04-24 02:13 | 41.20079 | 28.67604 | 4998 ft | 265 kts | 49° |
| 2026-04-24 02:13 | 41.21252 | 28.69496 | 4981 ft | 265 kts | 48° |
| 2026-04-24 02:14 | 41.22453 | 28.71352 | 4999 ft | 265 kts | 47° |
| 2026-04-24 02:14 | 41.23683 | 28.73170 | 4998 ft | 265 kts | 46° |
| 2026-04-24 02:14 | 41.24944 | 28.74951 | 4982 ft | 265 kts | 44° |
| 2026-04-24 02:14 | 41.26260 | 28.76651 | 5002 ft | 263 kts | 38° |
| 2026-04-24 02:15 | 41.27791 | 28.77954 | 4984 ft | 261 kts | 25° |
| 2026-04-24 02:15 | 41.29434 | 28.78992 | 5001 ft | 261 kts | 22° |
| 2026-04-24 02:15 | 41.31092 | 28.79964 | 4988 ft | 261 kts | 21° |
| 2026-04-24 02:15 | 41.32760 | 28.80920 | 5004 ft | 261 kts | 21° |
| 2026-04-24 02:16 | 41.34433 | 28.81869 | 4989 ft | 261 kts | 21° |
| 2026-04-24 02:16 | 41.36105 | 28.82813 | 4987 ft | 261 kts | 21° |
| 2026-04-24 02:16 | 41.37777 | 28.83754 | 5001 ft | 261 kts | 21° |
| 2026-04-24 02:16 | 41.39452 | 28.84696 | 4989 ft | 261 kts | 21° |
| 2026-04-24 02:17 | 41.41122 | 28.85635 | 4992 ft | 261 kts | 20° |
| 2026-04-24 02:17 | 41.42793 | 28.86575 | 4995 ft | 261 kts | 20° |
| 2026-04-24 02:17 | 41.44467 | 28.87515 | 4996 ft | 261 kts | 20° |
| 2026-04-24 02:17 | 41.46135 | 28.88453 | 4994 ft | 260 kts | 21° |
| 2026-04-24 02:18 | 41.47803 | 28.89391 | 4992 ft | 260 kts | 20° |
| 2026-04-24 02:18 | 41.49466 | 28.90327 | 4992 ft | 259 kts | 20° |
| 2026-04-24 02:18 | 41.51102 | 28.91248 | 4989 ft | 259 kts | 20° |
| 2026-04-24 02:18 | 41.52760 | 28.92182 | 5006 ft | 259 kts | 20° |
| 2026-04-24 02:19 | 41.54419 | 28.93116 | 4994 ft | 259 kts | 20° |
| 2026-04-24 02:19 | 41.56130 | 28.93835 | 4997 ft | 257 kts | 7° |
| 2026-04-24 02:19 | 41.57886 | 28.93748 | 5004 ft | 252 kts | 343° |
| 2026-04-24 02:19 | 41.59380 | 28.92591 | 5012 ft | 251 kts | 316° |
| 2026-04-24 02:20 | 41.60562 | 28.90880 | 4990 ft | 251 kts | 311° |
| 2026-04-24 02:20 | 41.61680 | 28.89096 | 4988 ft | 250 kts | 310° |
| 2026-04-24 02:20 | 41.62790 | 28.87305 | 4992 ft | 251 kts | 310° |
| 2026-04-24 02:20 | 41.63889 | 28.85485 | 4987 ft | 253 kts | 307° |
| 2026-04-24 02:21 | 41.64728 | 28.83418 | 5011 ft | 254 kts | 294° |
| 2026-04-24 02:21 | 41.65361 | 28.81212 | 4992 ft | 254 kts | 292° |
| 2026-04-24 02:21 | 41.65759 | 28.78910 | 4991 ft | 257 kts | 275° |
| 2026-04-24 02:21 | 41.65372 | 28.76572 | 4991 ft | 264 kts | 245° |
| 2026-04-24 02:22 | 41.64096 | 28.74791 | 4990 ft | 273 kts | 214° |
| 2026-04-24 02:22 | 41.62348 | 28.73745 | 4988 ft | 276 kts | 203° |
| 2026-04-24 02:22 | 41.60544 | 28.72863 | 5004 ft | 277 kts | 202° |
| 2026-04-24 02:22 | 41.58694 | 28.72191 | 4991 ft | 271 kts | 191° |
| 2026-04-24 02:23 | 41.56874 | 28.72010 | 5005 ft | 254 kts | 181° |
| 2026-04-24 02:23 | 41.55172 | 28.72073 | 5018 ft | 235 kts | 179° |
| 2026-04-24 02:23 | 41.53607 | 28.72135 | 5030 ft | 215 kts | 180° |
| 2026-04-24 02:23 | 41.52159 | 28.72182 | 4879 ft | 204 kts | 181° |
| 2026-04-24 02:24 | 41.50752 | 28.72210 | 4599 ft | 201 kts | 181° |
| 2026-04-24 02:24 | 41.49356 | 28.72240 | 4256 ft | 201 kts | 181° |
| 2026-04-24 02:24 | 41.47958 | 28.72273 | 3910 ft | 201 kts | 182° |
| 2026-04-24 02:24 | 41.47019 | 28.72295 | 3716 ft | 199 kts | 182° |
| 2026-04-24 02:25 | 41.45201 | 28.72337 | 3349 ft | 193 kts | 182° |
| 2026-04-24 02:25 | 41.44331 | 28.72359 | 3179 ft | 184 kts | 183° |
| 2026-04-24 02:25 | 41.42702 | 28.72398 | 2865 ft | 167 kts | 184° |
| 2026-04-24 02:25 | 41.41953 | 28.72415 | 2722 ft | 159 kts | 184° |
| 2026-04-24 02:26 | 41.40881 | 28.72440 | 2510 ft | 149 kts | 185° |
| 2026-04-24 02:26 | 41.39870 | 28.72463 | 2312 ft | 143 kts | 185° |
| 2026-04-24 02:26 | 41.38874 | 28.72485 | 2116 ft | 142 kts | 186° |
| 2026-04-24 02:26 | 41.37916 | 28.72509 | 1912 ft | 134 kts | 186° |
| 2026-04-24 02:27 | 41.36992 | 28.72529 | 1744 ft | 132 kts | 187° |
| 2026-04-24 02:27 | 41.36077 | 28.72549 | 1567 ft | 131 kts | 187° |
| 2026-04-24 02:27 | 41.35167 | 28.72570 | 1383 ft | 130 kts | 186° |
| 2026-04-24 02:27 | 41.34260 | 28.72590 | 1209 ft | 131 kts | 184° |
| 2026-04-24 02:28 | 41.33357 | 28.72611 | 1029 ft | 129 kts | 183° |
| 2026-04-24 02:28 | 41.32470 | 28.72633 | 846 ft | 126 kts | 182° |
| 2026-04-24 02:28 | 41.31591 | 28.72653 | 687 ft | 127 kts | 181° |
| 2026-04-24 02:28 | 41.30709 | 28.72676 | 527 ft | 127 kts | 180° |
| 2026-04-24 02:29 | 41.29827 | 28.72695 | 373 ft | 127 kts | 181° |
| 2026-04-24 02:29 | 41.29002 | 28.72712 | 335 ft | 103 kts | 179° |
| 2026-04-24 02:29 | 41.28393 | 28.72726 | 337 ft | 74 kts | 179° |
| 2026-04-24 02:29 | 41.27955 | 28.72736 | 336 ft | 53 kts | 179° |
| 2026-04-24 02:30 | 41.27639 | 28.72760 | 338 ft | 32 kts | 166° |
| 2026-04-24 02:30 | 41.27491 | 28.72846 | 335 ft | 21 kts | 150° |
| 2026-04-24 02:30 | 41.27381 | 28.72932 | 338 ft | 19 kts | 150° |
| 2026-04-24 02:30 | 41.27262 | 28.72980 | 335 ft | 18 kts | 178° |
| 2026-04-24 02:31 | 41.27122 | 28.72982 | 336 ft | 22 kts | 180° |
| 2026-04-24 02:31 | 41.26953 | 28.72987 | 338 ft | 26 kts | 179° |
| 2026-04-24 02:31 | 41.26801 | 28.72990 | 336 ft | 22 kts | 179° |
| 2026-04-24 02:31 | 41.26675 | 28.72994 | 338 ft | 17 kts | 179° |
| 2026-04-24 02:32 | 41.26539 | 28.72996 | 335 ft | 22 kts | 179° |
| 2026-04-24 02:32 | 41.26381 | 28.73000 | 337 ft | 21 kts | 178° |
| 2026-04-24 02:32 | 41.26264 | 28.73005 | 336 ft | 17 kts | 172° |
| 2026-04-24 02:32 | 41.26220 | 28.73068 | 336 ft | 10 kts | 104° |
| 2026-04-24 02:33 | 41.26217 | 28.73173 | 337 ft | 14 kts | 90° |
| 2026-04-24 02:33 | 41.26220 | 28.73328 | 337 ft | 15 kts | 88° |
| 2026-04-24 02:33 | 41.26219 | 28.73470 | 337 ft | 13 kts | 102° |
| 2026-04-24 02:33 | 41.26227 | 28.73567 | 336 ft | 9 kts | 71° |
| 2026-04-24 02:34 | 41.26244 | 28.73633 | 336 ft | 4 kts | 70° |
| 2026-04-24 02:34 | 41.26245 | 28.73637 | 337 ft | 0 kts | 70° |